<?xml version='1.0' encoding='UTF-8'?><gpx version="1.1" creator="JPX - https://github.com/jenetics/jpx" xmlns="http://www.topografix.com/GPX/1/1"><trk><trkseg><trkpt lat="51.04218038246792" lon="2.378390522315297"><ele>5.0</ele><time>2026-04-04T17:56:41.988Z</time></trkpt><trkpt lat="51.04224691250125" lon="2.3784395222425747"><ele>5.0</ele><time>2026-04-04T17:56:47.992Z</time></trkpt><trkpt lat="51.04234767330764" lon="2.3785064924913506"><ele>5.0</ele><time>2026-04-04T17:56:51.994Z</time></trkpt><trkpt lat="51.04242966491785" lon="2.3786714999632816"><ele>5.0</ele><time>2026-04-04T17:56:53.995Z</time></trkpt><trkpt lat="51.04247365869557" lon="2.378772583132801"><ele>5.0</ele><time>2026-04-04T17:56:54.995Z</time></trkpt><trkpt lat="51.04251416693387" lon="2.3788629984586875"><ele>5.5</ele><time>2026-04-04T17:56:55.996Z</time></trkpt><trkpt lat="51.042550925527344" lon="2.3789449198150803"><ele>6.0</ele><time>2026-04-04T17:56:56.996Z</time></trkpt><trkpt lat="51.04260573476283" lon="2.3790812643437986"><ele>6.5</ele><time>2026-04-04T17:56:58.997Z</time></trkpt><trkpt lat="51.04265790528499" lon="2.3792139975353948"><ele>7.0</ele><time>2026-04-04T17:57:00.997Z</time></trkpt><trkpt lat="51.04270520761089" lon="2.379328740085187"><ele>7.499999999999999</ele><time>2026-04-04T17:57:01.997Z</time></trkpt><trkpt lat="51.04277473582056" lon="2.3794094204730674"><ele>8.0</ele><time>2026-04-04T17:57:03.998Z</time></trkpt><trkpt lat="51.04282271600366" lon="2.379518003088875"><ele>7.999999999999999</ele><time>2026-04-04T17:57:05.998Z</time></trkpt><trkpt lat="51.042859059797735" lon="2.379602917091387"><ele>8.0</ele><time>2026-04-04T17:57:08.999Z</time></trkpt><trkpt lat="51.04291947043006" lon="2.379689429242079"><ele>8.0</ele><time>2026-04-04T17:57:11.999Z</time></trkpt><trkpt lat="51.042974943376215" lon="2.3797611552659967"><ele>8.0</ele><time>2026-04-04T17:57:13.999Z</time></trkpt><trkpt lat="51.04302523202148" lon="2.379850469370362"><ele>7.999999999999999</ele><time>2026-04-04T17:57:15.999Z</time></trkpt><trkpt lat="51.043060175939566" lon="2.3799886885557777"><ele>8.0</ele><time>2026-04-04T17:57:18Z</time></trkpt><trkpt lat="51.0431135655992" lon="2.380090156137228"><ele>7.833333333333333</ele><time>2026-04-04T17:57:20Z</time></trkpt><trkpt lat="51.0431456815279" lon="2.3801874544716353"><ele>7.666666666666666</ele><time>2026-04-04T17:57:22Z</time></trkpt><trkpt lat="51.04319740871487" lon="2.380266045606377"><ele>7.5</ele><time>2026-04-04T17:57:24Z</time></trkpt><trkpt lat="51.043234902972685" lon="2.3803629389954444"><ele>7.333333333333334</ele><time>2026-04-04T17:57:26Z</time></trkpt><trkpt lat="51.043288144198364" lon="2.3804391706940016"><ele>7.166666666666667</ele><time>2026-04-04T17:57:28Z</time></trkpt><trkpt lat="51.04334520835973" lon="2.380555279520485"><ele>7.0</ele><time>2026-04-04T17:57:31Z</time></trkpt><trkpt lat="51.043390813206365" lon="2.3806800269407384"><ele>6.833333333333334</ele><time>2026-04-04T17:57:34.001Z</time></trkpt><trkpt lat="51.04340105772408" lon="2.3808142106496994"><ele>6.666666666666667</ele><time>2026-04-04T17:57:36.001Z</time></trkpt><trkpt lat="51.043417585589694" lon="2.380927696363864"><ele>6.5</ele><time>2026-04-04T17:57:38.001Z</time></trkpt><trkpt lat="51.04347632917912" lon="2.38098443929157"><ele>6.333333333333334</ele><time>2026-04-04T17:57:40.001Z</time></trkpt><trkpt lat="51.04355199674316" lon="2.3810735288753517"><ele>6.166666666666667</ele><time>2026-04-04T17:57:42.001Z</time></trkpt><trkpt lat="51.04359011055609" lon="2.3811845508348557"><ele>6.0</ele><time>2026-04-04T17:57:44.001Z</time></trkpt><trkpt lat="51.043635979130144" lon="2.3812621596313286"><ele>6.0</ele><time>2026-04-04T17:57:46.001Z</time></trkpt><trkpt lat="51.04368707577536" lon="2.381332190683017"><ele>6.0</ele><time>2026-04-04T17:57:48.001Z</time></trkpt><trkpt lat="51.043738142956485" lon="2.38141905977388"><ele>6.0</ele><time>2026-04-04T17:57:50.001Z</time></trkpt><trkpt lat="51.04382128704823" lon="2.381495258518579"><ele>6.0</ele><time>2026-04-04T17:57:53.001Z</time></trkpt><trkpt lat="51.04386800879209" lon="2.381595890827321"><ele>6.0</ele><time>2026-04-04T17:57:56.001Z</time></trkpt><trkpt lat="51.0439110219314" lon="2.3816795367642887"><ele>6.0</ele><time>2026-04-04T17:57:59.001Z</time></trkpt><trkpt lat="51.043955311462376" lon="2.381793661415609"><ele>5.999999999999999</ele><time>2026-04-04T17:58:02.001Z</time></trkpt><trkpt lat="51.0439983408764" lon="2.3818851668194876"><ele>6.0</ele><time>2026-04-04T17:58:04.001Z</time></trkpt><trkpt lat="51.04398444185224" lon="2.381984254377707"><ele>6.0</ele><time>2026-04-04T17:58:06.001Z</time></trkpt><trkpt lat="51.0439247397216" lon="2.3820734579328846"><ele>6.0</ele><time>2026-04-04T17:58:09.001Z</time></trkpt><trkpt lat="51.043858357258586" lon="2.3821228202419262"><ele>6.0</ele><time>2026-04-04T17:58:11.001Z</time></trkpt><trkpt lat="51.043808106671065" lon="2.3821943743421006"><ele>5.999999999999999</ele><time>2026-04-04T17:58:14.001Z</time></trkpt><trkpt lat="51.04373542531544" lon="2.3822349004436956"><ele>6.0</ele><time>2026-04-04T17:58:17.001Z</time></trkpt><trkpt lat="51.04368329624612" lon="2.382311952070771"><ele>6.166666666666667</ele><time>2026-04-04T17:58:19.001Z</time></trkpt><trkpt lat="51.04362519555806" lon="2.3823904559895714"><ele>6.333333333333334</ele><time>2026-04-04T17:58:21.001Z</time></trkpt><trkpt lat="51.043575778600875" lon="2.3824992331502064"><ele>6.5</ele><time>2026-04-04T17:58:23.001Z</time></trkpt><trkpt lat="51.0435643425761" lon="2.3826404180180836"><ele>6.666666666666667</ele><time>2026-04-04T17:58:25.001Z</time></trkpt><trkpt lat="51.04353323115676" lon="2.3827826181303187"><ele>6.833333333333334</ele><time>2026-04-04T17:58:27.001Z</time></trkpt><trkpt lat="51.04348720003388" lon="2.38291567303351"><ele>7.0</ele><time>2026-04-04T17:58:29.001Z</time></trkpt><trkpt lat="51.04344956017105" lon="2.383019999698162"><ele>7.000000000000001</ele><time>2026-04-04T17:58:31.001Z</time></trkpt><trkpt lat="51.04346272434237" lon="2.3831372651705927"><ele>7.0</ele><time>2026-04-04T17:58:33.001Z</time></trkpt><trkpt lat="51.043530130836686" lon="2.3832153083648975"><ele>7.0</ele><time>2026-04-04T17:58:35.001Z</time></trkpt><trkpt lat="51.04360254895177" lon="2.3832332312865216"><ele>7.0</ele><time>2026-04-04T17:58:37.001Z</time></trkpt><trkpt lat="51.04365645578486" lon="2.3833280398318304"><ele>7.000000000000001</ele><time>2026-04-04T17:58:40.001Z</time></trkpt><trkpt lat="51.04373386989438" lon="2.3834170448994323"><ele>7.0</ele><time>2026-04-04T17:58:43.003Z</time></trkpt><trkpt lat="51.04381834663264" lon="2.3834753676913927"><ele>7.0</ele><time>2026-04-04T17:58:45.003Z</time></trkpt><trkpt lat="51.04392903967889" lon="2.3834802328376936"><ele>6.999999999999999</ele><time>2026-04-04T17:58:48.002Z</time></trkpt><trkpt lat="51.04403067323353" lon="2.3834957232694407"><ele>6.999999999999999</ele><time>2026-04-04T17:58:51.002Z</time></trkpt><trkpt lat="51.04413097847074" lon="2.3833269900076584"><ele>7.0</ele><time>2026-04-04T17:58:56.002Z</time></trkpt><trkpt lat="51.0442106934216" lon="2.3833643961143287"><ele>7.0</ele><time>2026-04-04T17:58:58.001Z</time></trkpt><trkpt lat="51.044284119542304" lon="2.383319267932817"><ele>6.8</ele><time>2026-04-04T17:59:01.001Z</time></trkpt><trkpt lat="51.044335281576764" lon="2.38318993601393"><ele>6.6</ele><time>2026-04-04T17:59:04.001Z</time></trkpt><trkpt lat="51.04439363472632" lon="2.383020067441138"><ele>6.3999999999999995</ele><time>2026-04-04T17:59:07.001Z</time></trkpt><trkpt lat="51.04444467715148" lon="2.3829042316681934"><ele>6.199999999999999</ele><time>2026-04-04T17:59:09.001Z</time></trkpt><trkpt lat="51.044500409840445" lon="2.3828467175498615"><ele>6.0</ele><time>2026-04-04T17:59:11.001Z</time></trkpt><trkpt lat="51.044592992735176" lon="2.382820851459304"><ele>6.0</ele><time>2026-04-04T17:59:13.001Z</time></trkpt><trkpt lat="51.0446697430085" lon="2.3828655833954135"><ele>6.0</ele><time>2026-04-04T17:59:16.001Z</time></trkpt><trkpt lat="51.04475000503865" lon="2.382878698623763"><ele>6.0</ele><time>2026-04-04T17:59:19.001Z</time></trkpt><trkpt lat="51.044822470809734" lon="2.3828838847432112"><ele>6.0</ele><time>2026-04-04T17:59:22Z</time></trkpt><trkpt lat="51.04490835766016" lon="2.3828564437603412"><ele>6.0</ele><time>2026-04-04T17:59:25Z</time></trkpt><trkpt lat="51.04496171302498" lon="2.3827995900509316"><ele>6.0</ele><time>2026-04-04T17:59:27Z</time></trkpt><trkpt lat="51.0450223620244" lon="2.382733141147175"><ele>6.166666666666667</ele><time>2026-04-04T17:59:31Z</time></trkpt><trkpt lat="51.04506998790491" lon="2.3826415014258404"><ele>6.333333333333334</ele><time>2026-04-04T17:59:36Z</time></trkpt><trkpt lat="51.045145591104" lon="2.3825475291561293"><ele>6.5</ele><time>2026-04-04T17:59:40Z</time></trkpt><trkpt lat="51.04519113264487" lon="2.3824757055003083"><ele>6.666666666666667</ele><time>2026-04-04T17:59:42Z</time></trkpt><trkpt lat="51.04524600071953" lon="2.382376337098736"><ele>6.833333333333334</ele><time>2026-04-04T17:59:44Z</time></trkpt><trkpt lat="51.04530680101438" lon="2.3822634094561774"><ele>7.0</ele><time>2026-04-04T17:59:46Z</time></trkpt><trkpt lat="51.045426019586564" lon="2.382087366317553"><ele>7.0</ele><time>2026-04-04T17:59:49Z</time></trkpt><trkpt lat="51.04547567815588" lon="2.3820227500749884"><ele>6.999999999999999</ele><time>2026-04-04T17:59:50Z</time></trkpt><trkpt lat="51.04543987351253" lon="2.3817594276687295"><ele>6.999999999999999</ele><time>2026-04-04T17:59:51Z</time></trkpt><trkpt lat="51.04549447470241" lon="2.3817088853092576"><ele>7.0</ele><time>2026-04-04T17:59:52Z</time></trkpt><trkpt lat="51.04555826264952" lon="2.381627810921349"><ele>7.0</ele><time>2026-04-04T17:59:54Z</time></trkpt><trkpt lat="51.045626870399786" lon="2.381549293156616"><ele>7.0</ele><time>2026-04-04T17:59:56Z</time></trkpt><trkpt lat="51.045697920052966" lon="2.3814679807646244"><ele>6.999999999999999</ele><time>2026-04-04T17:59:58Z</time></trkpt><trkpt lat="51.04576517771362" lon="2.381391008098691"><ele>6.999999999999999</ele><time>2026-04-04T18:00:01Z</time></trkpt><trkpt lat="51.04582845380204" lon="2.381157211427522"><ele>7.0</ele><time>2026-04-04T18:00:02Z</time></trkpt><trkpt lat="51.04591579631608" lon="2.3811220248503773"><ele>7.0</ele><time>2026-04-04T18:00:06Z</time></trkpt><trkpt lat="51.04599136232092" lon="2.381086615874736"><ele>7.0</ele><time>2026-04-04T18:00:10Z</time></trkpt><trkpt lat="51.046055711263435" lon="2.3810556544263397"><ele>7.0</ele><time>2026-04-04T18:00:14Z</time></trkpt><trkpt lat="51.046215721239406" lon="2.3815990163754295"><ele>7.0</ele><time>2026-04-04T18:00:18Z</time></trkpt><trkpt lat="51.04628061172022" lon="2.3815991780841146"><ele>6.833333333333334</ele><time>2026-04-04T18:00:24Z</time></trkpt><trkpt lat="51.04635528631081" lon="2.381589983478727"><ele>6.666666666666667</ele><time>2026-04-04T18:00:28Z</time></trkpt><trkpt lat="51.04645327269826" lon="2.381616664406918"><ele>6.5</ele><time>2026-04-04T18:00:35Z</time></trkpt><trkpt lat="51.04652951337289" lon="2.381669643121746"><ele>6.333333333333334</ele><time>2026-04-04T18:00:44Z</time></trkpt><trkpt lat="51.04659521080316" lon="2.381664504990494"><ele>6.166666666666667</ele><time>2026-04-04T18:00:49Z</time></trkpt><trkpt lat="51.04653542592826" lon="2.3815965865171784"><ele>6.0</ele><time>2026-04-04T18:00:53Z</time></trkpt><trkpt lat="51.04647304309951" lon="2.381636876858241"><ele>5.999999999999999</ele><time>2026-04-04T18:00:56Z</time></trkpt><trkpt lat="51.04639356181334" lon="2.381666288966122"><ele>6.0</ele><time>2026-04-04T18:00:59Z</time></trkpt><trkpt lat="51.04632574154327" lon="2.381687073096515"><ele>6.0</ele><time>2026-04-04T18:01:01Z</time></trkpt><trkpt lat="51.04625946696799" lon="2.3817175477696733"><ele>6.0</ele><time>2026-04-04T18:01:03Z</time></trkpt><trkpt lat="51.04625486522459" lon="2.381825041175502"><ele>6.0</ele><time>2026-04-04T18:01:07Z</time></trkpt><trkpt lat="51.04632956064239" lon="2.381885320621279"><ele>5.999999999999999</ele><time>2026-04-04T18:01:10Z</time></trkpt><trkpt lat="51.046402005803564" lon="2.3819213020510968"><ele>6.0</ele><time>2026-04-04T18:01:13Z</time></trkpt><trkpt lat="51.04645692728463" lon="2.381852209522664"><ele>5.999999999999999</ele><time>2026-04-04T18:01:15Z</time></trkpt><trkpt lat="51.04652805534032" lon="2.381787802971725"><ele>6.0</ele><time>2026-04-04T18:01:19Z</time></trkpt><trkpt lat="51.04659807491187" lon="2.3818021611756217"><ele>6.0</ele><time>2026-04-04T18:01:22Z</time></trkpt><trkpt lat="51.0466138591403" lon="2.3816792428670492"><ele>6.0</ele><time>2026-04-04T18:01:26Z</time></trkpt><trkpt lat="51.046563153689995" lon="2.381602197669738"><ele>6.0</ele><time>2026-04-04T18:01:29Z</time></trkpt><trkpt lat="51.04648968693348" lon="2.3816324027368516"><ele>5.999999999999999</ele><time>2026-04-04T18:01:32Z</time></trkpt><trkpt lat="51.046420658681036" lon="2.381650041043822"><ele>6.0</ele><time>2026-04-04T18:01:36Z</time></trkpt><trkpt lat="51.04635664799539" lon="2.381686672403327"><ele>5.999999999999999</ele><time>2026-04-04T18:01:39Z</time></trkpt><trkpt lat="51.046288568722495" lon="2.381703469527847"><ele>6.0</ele><time>2026-04-04T18:01:43Z</time></trkpt><trkpt lat="51.046230030945026" lon="2.3817681565860065"><ele>6.0</ele><time>2026-04-04T18:01:49Z</time></trkpt><trkpt lat="51.04628246993945" lon="2.3818557799981193"><ele>6.0</ele><time>2026-04-04T18:01:54Z</time></trkpt><trkpt lat="51.04630920818706" lon="2.3819477731896894"><ele>6.0</ele><time>2026-04-04T18:02:14Z</time></trkpt><trkpt lat="51.04638405964328" lon="2.3819712093131042"><ele>5.999999999999999</ele><time>2026-04-04T18:02:19Z</time></trkpt><trkpt lat="51.04642399572691" lon="2.3820775648202823"><ele>6.0</ele><time>2026-04-04T18:02:22Z</time></trkpt><trkpt lat="51.046354191574096" lon="2.382033782342186"><ele>6.0</ele><time>2026-04-04T18:02:26Z</time></trkpt><trkpt lat="51.046290244604194" lon="2.3819864603362086"><ele>6.0</ele><time>2026-04-04T18:02:28Z</time></trkpt><trkpt lat="51.04620941972934" lon="2.38194967667223"><ele>6.0</ele><time>2026-04-04T18:02:30Z</time></trkpt><trkpt lat="51.04611741014548" lon="2.3819670661394516"><ele>6.0</ele><time>2026-04-04T18:02:31.999Z</time></trkpt><trkpt lat="51.04602740371981" lon="2.382017998405825"><ele>6.0</ele><time>2026-04-04T18:02:33.999Z</time></trkpt><trkpt lat="51.04594566727039" lon="2.382028235929818"><ele>6.0</ele><time>2026-04-04T18:02:35.999Z</time></trkpt><trkpt lat="51.045873951313204" lon="2.3820551692545577"><ele>5.999999999999999</ele><time>2026-04-04T18:02:37.999Z</time></trkpt><trkpt lat="51.04581657423599" lon="2.382113671813229"><ele>6.0</ele><time>2026-04-04T18:02:39.999Z</time></trkpt><trkpt lat="51.0457613384791" lon="2.3821675453892865"><ele>6.0</ele><time>2026-04-04T18:02:41.999Z</time></trkpt><trkpt lat="51.04570676047901" lon="2.382219394367815"><ele>6.0</ele><time>2026-04-04T18:02:43.999Z</time></trkpt><trkpt lat="51.04563620472537" lon="2.3822856635824468"><ele>6.0</ele><time>2026-04-04T18:02:45.999Z</time></trkpt><trkpt lat="51.045585843642385" lon="2.3823745550878135"><ele>5.999999999999999</ele><time>2026-04-04T18:02:47.999Z</time></trkpt><trkpt lat="51.0455368526416" lon="2.382479132417891"><ele>6.0</ele><time>2026-04-04T18:02:49.999Z</time></trkpt><trkpt lat="51.04548639100835" lon="2.3825671170785427"><ele>6.142857142857142</ele><time>2026-04-04T18:02:51.999Z</time></trkpt><trkpt lat="51.04544562126009" lon="2.3826654740042077"><ele>6.285714285714286</ele><time>2026-04-04T18:02:54.001Z</time></trkpt><trkpt lat="51.04539799459001" lon="2.3827568018533842"><ele>6.428571428571429</ele><time>2026-04-04T18:02:56.001Z</time></trkpt><trkpt lat="51.04537369392936" lon="2.3828561450836934"><ele>6.571428571428571</ele><time>2026-04-04T18:02:58.001Z</time></trkpt><trkpt lat="51.04534610131509" lon="2.382968531827793"><ele>6.714285714285714</ele><time>2026-04-04T18:03:00.001Z</time></trkpt><trkpt lat="51.04533575525372" lon="2.3830832593765683"><ele>6.857142857142857</ele><time>2026-04-04T18:03:03Z</time></trkpt><trkpt lat="51.04532111008156" lon="2.383189782172807"><ele>7.0</ele><time>2026-04-04T18:03:05Z</time></trkpt><trkpt lat="51.04529409489136" lon="2.3833239507675"><ele>6.666666666666667</ele><time>2026-04-04T18:03:07Z</time></trkpt><trkpt lat="51.04522175919284" lon="2.3834128365386085"><ele>6.333333333333334</ele><time>2026-04-04T18:03:09Z</time></trkpt><trkpt lat="51.04514630387509" lon="2.3834370111338585"><ele>6.0</ele><time>2026-04-04T18:03:11Z</time></trkpt><trkpt lat="51.04507670016461" lon="2.383426707933045"><ele>5.666666666666667</ele><time>2026-04-04T18:03:14Z</time></trkpt><trkpt lat="51.04509509657132" lon="2.3835366523579187"><ele>5.333333333333334</ele><time>2026-04-04T18:03:18Z</time></trkpt><trkpt lat="51.045118378706775" lon="2.3836554475613765"><ele>5.0</ele><time>2026-04-04T18:03:22Z</time></trkpt><trkpt lat="51.04509040085399" lon="2.383745824177353"><ele>5.0</ele><time>2026-04-04T18:03:24Z</time></trkpt><trkpt lat="51.04507170860268" lon="2.3836489149534965"><ele>5.0</ele><time>2026-04-04T18:03:31Z</time></trkpt><trkpt lat="51.04508107276497" lon="2.3837868243003615"><ele>5.0</ele><time>2026-04-04T18:03:57Z</time></trkpt><trkpt lat="51.04501724246772" lon="2.3838296695753445"><ele>5.0</ele><time>2026-04-04T18:04:01Z</time></trkpt><trkpt lat="51.04501495960834" lon="2.383962099474679"><ele>5.0</ele><time>2026-04-04T18:04:05Z</time></trkpt><trkpt lat="51.045005010994736" lon="2.3840698517271184"><ele>5.0</ele><time>2026-04-04T18:04:08Z</time></trkpt><trkpt lat="51.04501423700049" lon="2.384171319270271"><ele>5.0</ele><time>2026-04-04T18:04:11Z</time></trkpt><trkpt lat="51.04503337445896" lon="2.3842754680607756"><ele>4.833333333333334</ele><time>2026-04-04T18:04:15Z</time></trkpt><trkpt lat="51.045159108495774" lon="2.384308292908153"><ele>4.666666666666667</ele><time>2026-04-04T18:04:23Z</time></trkpt><trkpt lat="51.04523109431963" lon="2.3842399682505406"><ele>4.5</ele><time>2026-04-04T18:04:26Z</time></trkpt><trkpt lat="51.04529535071779" lon="2.3841975081004403"><ele>4.333333333333333</ele><time>2026-04-04T18:04:29Z</time></trkpt><trkpt lat="51.04536924816599" lon="2.3841503248080973"><ele>4.166666666666666</ele><time>2026-04-04T18:04:32.999Z</time></trkpt><trkpt lat="51.04543131954002" lon="2.384084807437012"><ele>4.0</ele><time>2026-04-04T18:04:36.999Z</time></trkpt><trkpt lat="51.04549197602565" lon="2.3840436781033487"><ele>4.0</ele><time>2026-04-04T18:04:40.999Z</time></trkpt><trkpt lat="51.04553921050394" lon="2.383878948641955"><ele>4.0</ele><time>2026-04-04T18:04:50.999Z</time></trkpt><trkpt lat="51.04535786850521" lon="2.3839286787051583"><ele>4.0</ele><time>2026-04-04T18:05:06.001Z</time></trkpt><trkpt lat="51.04528791123042" lon="2.383956222869579"><ele>4.0</ele><time>2026-04-04T18:05:36Z</time></trkpt><trkpt lat="51.04521034849403" lon="2.383909833260935"><ele>4.166666666666666</ele><time>2026-04-04T18:05:40Z</time></trkpt><trkpt lat="51.04517083624324" lon="2.383824281949938"><ele>4.333333333333333</ele><time>2026-04-04T18:05:50Z</time></trkpt><trkpt lat="51.04511776821812" lon="2.383732604904324"><ele>4.5</ele><time>2026-04-04T18:05:57Z</time></trkpt><trkpt lat="51.04504997652839" lon="2.3837124708046815"><ele>4.666666666666667</ele><time>2026-04-04T18:06:00Z</time></trkpt><trkpt lat="51.04497714022124" lon="2.3836837332283536"><ele>4.833333333333334</ele><time>2026-04-04T18:06:04Z</time></trkpt><trkpt lat="51.044910188986954" lon="2.3836176247911434"><ele>5.0</ele><time>2026-04-04T18:06:07Z</time></trkpt><trkpt lat="51.04484785638208" lon="2.383518466665818"><ele>5.142857142857142</ele><time>2026-04-04T18:06:10Z</time></trkpt><trkpt lat="51.04483851126049" lon="2.3834147072276504"><ele>5.285714285714286</ele><time>2026-04-04T18:06:12Z</time></trkpt><trkpt lat="51.044823081625715" lon="2.3833036387527304"><ele>5.428571428571429</ele><time>2026-04-04T18:06:14Z</time></trkpt><trkpt lat="51.04480232207127" lon="2.383184882486481"><ele>5.571428571428571</ele><time>2026-04-04T18:06:18Z</time></trkpt><trkpt lat="51.044748182028236" lon="2.383127142676355"><ele>5.714285714285714</ele><time>2026-04-04T18:06:21Z</time></trkpt><trkpt lat="51.044689995257215" lon="2.3830869371621106"><ele>5.857142857142857</ele><time>2026-04-04T18:06:24Z</time></trkpt><trkpt lat="51.0446278029464" lon="2.383049486255511"><ele>6.0</ele><time>2026-04-04T18:06:26Z</time></trkpt><trkpt lat="51.04455489679406" lon="2.3830749969156027"><ele>6.0</ele><time>2026-04-04T18:06:29Z</time></trkpt><trkpt lat="51.04448101538422" lon="2.3831704617754625"><ele>6.0</ele><time>2026-04-04T18:06:31.999Z</time></trkpt><trkpt lat="51.04439928224374" lon="2.3832342520553897"><ele>6.0</ele><time>2026-04-04T18:06:34.999Z</time></trkpt><trkpt lat="51.04433736689423" lon="2.3831530517522714"><ele>6.0</ele><time>2026-04-04T18:06:37.999Z</time></trkpt><trkpt lat="51.044275681838656" lon="2.38319205706051"><ele>6.0</ele><time>2026-04-04T18:06:39.999Z</time></trkpt><trkpt lat="51.04430158547796" lon="2.383314164152448"><ele>6.0</ele><time>2026-04-04T18:06:41.999Z</time></trkpt><trkpt lat="51.04436423206987" lon="2.3832934516092874"><ele>6.0</ele><time>2026-04-04T18:06:44.999Z</time></trkpt><trkpt lat="51.04442563679997" lon="2.3831943058815477"><ele>6.0</ele><time>2026-04-04T18:06:46.999Z</time></trkpt><trkpt lat="51.04447177050215" lon="2.383115505864138"><ele>6.0</ele><time>2026-04-04T18:06:48.999Z</time></trkpt><trkpt lat="51.04447595860931" lon="2.382981211097628"><ele>6.0</ele><time>2026-04-04T18:06:50.999Z</time></trkpt><trkpt lat="51.04450195096649" lon="2.3828814387333295"><ele>6.0</ele><time>2026-04-04T18:07:02.999Z</time></trkpt><trkpt lat="51.044652885288784" lon="2.382844718502955"><ele>5.999999999999999</ele><time>2026-04-04T18:07:18Z</time></trkpt><trkpt lat="51.04472009902852" lon="2.382881334992866"><ele>6.0</ele><time>2026-04-04T18:07:22Z</time></trkpt><trkpt lat="51.04478861068436" lon="2.3828856271980623"><ele>6.0</ele><time>2026-04-04T18:07:27Z</time></trkpt><trkpt lat="51.04487504550184" lon="2.3828648952556986"><ele>6.0</ele><time>2026-04-04T18:07:32Z</time></trkpt><trkpt lat="51.04494951183812" lon="2.3828280674905153"><ele>6.0</ele><time>2026-04-04T18:07:37Z</time></trkpt><trkpt lat="51.04500711367872" lon="2.382786024813656"><ele>5.999999999999999</ele><time>2026-04-04T18:07:41Z</time></trkpt><trkpt lat="51.0450624988508" lon="2.382717745154459"><ele>6.0</ele><time>2026-04-04T18:07:46Z</time></trkpt><trkpt lat="51.044998489552846" lon="2.3828446074052185"><ele>5.999999999999999</ele><time>2026-04-04T18:24:25Z</time></trkpt><trkpt lat="51.0449188440546" lon="2.3828481018120793"><ele>6.0</ele><time>2026-04-04T18:24:44.999Z</time></trkpt><trkpt lat="51.04485477139222" lon="2.3828528315564217"><ele>6.0</ele><time>2026-04-04T18:24:46.999Z</time></trkpt><trkpt lat="51.04479153190499" lon="2.3828605660441577"><ele>6.0</ele><time>2026-04-04T18:24:48.999Z</time></trkpt><trkpt lat="51.04469996166286" lon="2.382841830645302"><ele>6.0</ele><time>2026-04-04T18:24:51.999Z</time></trkpt><trkpt lat="51.044631325909016" lon="2.382810259089671"><ele>5.999999999999999</ele><time>2026-04-04T18:24:54.999Z</time></trkpt><trkpt lat="51.04455532882222" lon="2.3828299033490037"><ele>6.0</ele><time>2026-04-04T18:24:58.999Z</time></trkpt><trkpt lat="51.044481022017486" lon="2.382805018320844"><ele>6.0</ele><time>2026-04-04T18:25:02.999Z</time></trkpt><trkpt lat="51.0444273249015" lon="2.3828667187474175"><ele>6.0</ele><time>2026-04-04T18:25:04.999Z</time></trkpt><trkpt lat="51.044398930969564" lon="2.382970410423814"><ele>6.0</ele><time>2026-04-04T18:25:06.999Z</time></trkpt><trkpt lat="51.04438865726706" lon="2.383168439522583"><ele>6.0</ele><time>2026-04-04T18:25:08.999Z</time></trkpt><trkpt lat="51.04433321180645" lon="2.383280760133583"><ele>6.0</ele><time>2026-04-04T18:25:10.999Z</time></trkpt><trkpt lat="51.044251266119794" lon="2.3832845782997527"><ele>6.0</ele><time>2026-04-04T18:25:12.999Z</time></trkpt><trkpt lat="51.04424553300805" lon="2.3831758023025116"><ele>5.999999999999999</ele><time>2026-04-04T18:25:15.999Z</time></trkpt><trkpt lat="51.044297352103655" lon="2.3832679080777193"><ele>6.0</ele><time>2026-04-04T18:25:18.999Z</time></trkpt><trkpt lat="51.04436057992402" lon="2.3832752217438022"><ele>6.0</ele><time>2026-04-04T18:25:21.999Z</time></trkpt><trkpt lat="51.04443310605345" lon="2.3832341318718058"><ele>6.0</ele><time>2026-04-04T18:25:25.999Z</time></trkpt><trkpt lat="51.04444083551015" lon="2.383126704784155"><ele>6.0</ele><time>2026-04-04T18:25:35.999Z</time></trkpt><trkpt lat="51.04438056367352" lon="2.383161696846303"><ele>5.999999999999999</ele><time>2026-04-04T18:26:20Z</time></trkpt><trkpt lat="51.04432198506433" lon="2.3832176644878715"><ele>6.0</ele><time>2026-04-04T18:26:23Z</time></trkpt><trkpt lat="51.04423387404914" lon="2.383235693324934"><ele>6.0</ele><time>2026-04-04T18:26:26Z</time></trkpt><trkpt lat="51.04415652158795" lon="2.383269474531684"><ele>6.0</ele><time>2026-04-04T18:26:29Z</time></trkpt><trkpt lat="51.04411058959734" lon="2.3833398570997266"><ele>6.0</ele><time>2026-04-04T18:26:31Z</time></trkpt><trkpt lat="51.04407022534053" lon="2.383434800134817"><ele>6.0</ele><time>2026-04-04T18:26:33Z</time></trkpt><trkpt lat="51.044066917898085" lon="2.383564770784523"><ele>6.0</ele><time>2026-04-04T18:26:35Z</time></trkpt><trkpt lat="51.044120271800956" lon="2.3836622539351726"><ele>6.0</ele><time>2026-04-04T18:26:37Z</time></trkpt><trkpt lat="51.044167726099715" lon="2.383746977595944"><ele>5.999999999999999</ele><time>2026-04-04T18:26:39Z</time></trkpt><trkpt lat="51.044204197548346" lon="2.3838321298102487"><ele>6.0</ele><time>2026-04-04T18:26:41Z</time></trkpt><trkpt lat="51.044264869090874" lon="2.3839033532869767"><ele>6.0</ele><time>2026-04-04T18:26:44Z</time></trkpt><trkpt lat="51.044328583142594" lon="2.3839648002555163"><ele>6.0</ele><time>2026-04-04T18:26:48Z</time></trkpt><trkpt lat="51.04440569340336" lon="2.3839860084220827"><ele>6.0</ele><time>2026-04-04T18:26:52Z</time></trkpt><trkpt lat="51.04446574522069" lon="2.384034539728278"><ele>5.999999999999999</ele><time>2026-04-04T18:26:54.999Z</time></trkpt><trkpt lat="51.04451936108089" lon="2.3841105022678577"><ele>6.0</ele><time>2026-04-04T18:26:57.999Z</time></trkpt><trkpt lat="51.04457642743138" lon="2.384188889733592"><ele>6.142857142857142</ele><time>2026-04-04T18:27:01.999Z</time></trkpt><trkpt lat="51.044610072227066" lon="2.384286175571709"><ele>6.285714285714286</ele><time>2026-04-04T18:27:04.999Z</time></trkpt><trkpt lat="51.04464349812998" lon="2.3843860460470196"><ele>6.428571428571429</ele><time>2026-04-04T18:27:07.999Z</time></trkpt><trkpt lat="51.04468486814499" lon="2.3844848822141875"><ele>6.571428571428571</ele><time>2026-04-04T18:27:10.999Z</time></trkpt><trkpt lat="51.04472409689372" lon="2.384591552442818"><ele>6.714285714285714</ele><time>2026-04-04T18:27:13.999Z</time></trkpt><trkpt lat="51.04476598445596" lon="2.384698042086419"><ele>6.857142857142857</ele><time>2026-04-04T18:27:16.999Z</time></trkpt><trkpt lat="51.044787232888716" lon="2.3847999020272597"><ele>7.0</ele><time>2026-04-04T18:27:18.999Z</time></trkpt><trkpt lat="51.044846071927005" lon="2.38487094001209"><ele>7.000000000000001</ele><time>2026-04-04T18:27:21.999Z</time></trkpt><trkpt lat="51.04489372119267" lon="2.384979314625438"><ele>7.0</ele><time>2026-04-04T18:27:24.999Z</time></trkpt><trkpt lat="51.04494637503471" lon="2.3850769633577134"><ele>7.0</ele><time>2026-04-04T18:27:27.999Z</time></trkpt><trkpt lat="51.045001297112" lon="2.385151868737002"><ele>7.0</ele><time>2026-04-04T18:27:30.999Z</time></trkpt><trkpt lat="51.0450614125644" lon="2.3852313212981104"><ele>7.000000000000001</ele><time>2026-04-04T18:27:33.999Z</time></trkpt><trkpt lat="51.04509986519283" lon="2.3853295307161635"><ele>7.0</ele><time>2026-04-04T18:27:36.999Z</time></trkpt><trkpt lat="51.0451598395737" lon="2.385424215802056"><ele>6.500000000000001</ele><time>2026-04-04T18:27:39.999Z</time></trkpt><trkpt lat="51.04521678853418" lon="2.3854790924330045"><ele>6.0</ele><time>2026-04-04T18:27:42.999Z</time></trkpt><trkpt lat="51.04529105972623" lon="2.385416036545357"><ele>5.5</ele><time>2026-04-04T18:27:45.999Z</time></trkpt><trkpt lat="51.04538015711893" lon="2.385353418670293"><ele>5.0</ele><time>2026-04-04T18:27:48.999Z</time></trkpt><trkpt lat="51.04548452326832" lon="2.385313951898832"><ele>4.5</ele><time>2026-04-04T18:27:50.999Z</time></trkpt><trkpt lat="51.04555392247217" lon="2.385260655228675"><ele>4.0</ele><time>2026-04-04T18:27:52.999Z</time></trkpt><trkpt lat="51.0456269788532" lon="2.3852444232306413"><ele>3.9999999999999996</ele><time>2026-04-04T18:27:55.999Z</time></trkpt><trkpt lat="51.04568893244766" lon="2.385174848568446"><ele>4.0</ele><time>2026-04-04T18:27:58.999Z</time></trkpt><trkpt lat="51.04575019377059" lon="2.385140400214959"><ele>4.0</ele><time>2026-04-04T18:28:00.999Z</time></trkpt><trkpt lat="51.04583854858142" lon="2.3850676250213176"><ele>4.0</ele><time>2026-04-04T18:28:04.999Z</time></trkpt><trkpt lat="51.045924856352016" lon="2.3850465636778266"><ele>3.9999999999999996</ele><time>2026-04-04T18:28:08Z</time></trkpt><trkpt lat="51.04598888730187" lon="2.384999567429718"><ele>4.0</ele><time>2026-04-04T18:28:11Z</time></trkpt><trkpt lat="51.046049078585575" lon="2.3849543476825343"><ele>4.285714285714286</ele><time>2026-04-04T18:28:14Z</time></trkpt><trkpt lat="51.04612003771306" lon="2.384912191632678"><ele>4.571428571428571</ele><time>2026-04-04T18:28:18Z</time></trkpt><trkpt lat="51.04618887747568" lon="2.384868835972982"><ele>4.857142857142857</ele><time>2026-04-04T18:28:21Z</time></trkpt><trkpt lat="51.04625278701808" lon="2.3848103819605924"><ele>5.142857142857142</ele><time>2026-04-04T18:28:25Z</time></trkpt><trkpt lat="51.04631292054397" lon="2.3847394799525183"><ele>5.428571428571429</ele><time>2026-04-04T18:28:28Z</time></trkpt><trkpt lat="51.04636823875189" lon="2.384686614245567"><ele>5.7142857142857135</ele><time>2026-04-04T18:28:31Z</time></trkpt><trkpt lat="51.04643785329122" lon="2.384667215497376"><ele>6.0</ele><time>2026-04-04T18:28:35Z</time></trkpt><trkpt lat="51.04652071277138" lon="2.384612205107966"><ele>6.0</ele><time>2026-04-04T18:28:39Z</time></trkpt><trkpt lat="51.046599890933024" lon="2.384552579441811"><ele>6.0</ele><time>2026-04-04T18:28:42Z</time></trkpt><trkpt lat="51.04666062255695" lon="2.3844904880741797"><ele>6.0</ele><time>2026-04-04T18:28:44Z</time></trkpt><trkpt lat="51.04673219319856" lon="2.384451341489608"><ele>6.0</ele><time>2026-04-04T18:28:48Z</time></trkpt><trkpt lat="51.04683882393943" lon="2.3844188256988916"><ele>6.0</ele><time>2026-04-04T18:28:53Z</time></trkpt><trkpt lat="51.04689648562834" lon="2.3843203425206587"><ele>6.0</ele><time>2026-04-04T18:28:57Z</time></trkpt><trkpt lat="51.04696348154418" lon="2.384225016552843"><ele>5.833333333333333</ele><time>2026-04-04T18:29:00Z</time></trkpt><trkpt lat="51.047012432358905" lon="2.3841449970453144"><ele>5.666666666666667</ele><time>2026-04-04T18:29:01Z</time></trkpt><trkpt lat="51.04705189587071" lon="2.3840592354280177"><ele>5.5</ele><time>2026-04-04T18:29:03Z</time></trkpt><trkpt lat="51.0470865987361" lon="2.383958529753058"><ele>5.333333333333334</ele><time>2026-04-04T18:29:04.999Z</time></trkpt><trkpt lat="51.04714844214211" lon="2.3838355962363846"><ele>5.166666666666667</ele><time>2026-04-04T18:29:07.999Z</time></trkpt><trkpt lat="51.047178668800896" lon="2.38373013548085"><ele>5.0</ele><time>2026-04-04T18:29:09.999Z</time></trkpt><trkpt lat="51.04722334120717" lon="2.3836169686692448"><ele>5.166666666666667</ele><time>2026-04-04T18:29:12.999Z</time></trkpt><trkpt lat="51.04725369745613" lon="2.3835240573009786"><ele>5.333333333333334</ele><time>2026-04-04T18:29:14.999Z</time></trkpt><trkpt lat="51.04727858783934" lon="2.383426238107105"><ele>5.5</ele><time>2026-04-04T18:29:16.999Z</time></trkpt><trkpt lat="51.047324732357566" lon="2.3833154541758512"><ele>5.666666666666667</ele><time>2026-04-04T18:29:19.999Z</time></trkpt><trkpt lat="51.04739277182135" lon="2.383286425736583"><ele>5.833333333333333</ele><time>2026-04-04T18:29:23.999Z</time></trkpt><trkpt lat="51.04753537843821" lon="2.3832930478528307"><ele>6.0</ele><time>2026-04-04T18:29:31.999Z</time></trkpt><trkpt lat="51.04760946228135" lon="2.383417424497528"><ele>6.0</ele><time>2026-04-04T18:29:38.999Z</time></trkpt><trkpt lat="51.04764842315638" lon="2.3835514733645686"><ele>6.0</ele><time>2026-04-04T18:29:41.999Z</time></trkpt><trkpt lat="51.04767605732631" lon="2.3836541407968994"><ele>6.0</ele><time>2026-04-04T18:29:44.999Z</time></trkpt><trkpt lat="51.04776756350503" lon="2.3837046999637668"><ele>6.0</ele><time>2026-04-04T18:29:47.999Z</time></trkpt><trkpt lat="51.04784390401912" lon="2.3836699759127002"><ele>6.0</ele><time>2026-04-04T18:29:49.999Z</time></trkpt><trkpt lat="51.047919157653475" lon="2.3836372698110844"><ele>6.0</ele><time>2026-04-04T18:29:51.999Z</time></trkpt><trkpt lat="51.04799369661376" lon="2.38359871043032"><ele>6.0</ele><time>2026-04-04T18:29:53.999Z</time></trkpt><trkpt lat="51.048071270581715" lon="2.383602727143573"><ele>6.0</ele><time>2026-04-04T18:29:55.999Z</time></trkpt><trkpt lat="51.04813631736098" lon="2.383617861221103"><ele>6.0</ele><time>2026-04-04T18:29:57.999Z</time></trkpt><trkpt lat="51.04823087282033" lon="2.383609645593905"><ele>6.0</ele><time>2026-04-04T18:30:00.999Z</time></trkpt><trkpt lat="51.04830236566995" lon="2.3835826189416967"><ele>6.0</ele><time>2026-04-04T18:30:02.999Z</time></trkpt><trkpt lat="51.04837403208813" lon="2.3835688029383446"><ele>6.0</ele><time>2026-04-04T18:30:04.999Z</time></trkpt><trkpt lat="51.04844638762652" lon="2.383555286740914"><ele>5.857142857142857</ele><time>2026-04-04T18:30:06.999Z</time></trkpt><trkpt lat="51.04851997557208" lon="2.3835497362694897"><ele>5.714285714285714</ele><time>2026-04-04T18:30:08.999Z</time></trkpt><trkpt lat="51.04859047481027" lon="2.3835383448260847"><ele>5.571428571428571</ele><time>2026-04-04T18:30:10.999Z</time></trkpt><trkpt lat="51.048663632103086" lon="2.383481680468976"><ele>5.428571428571429</ele><time>2026-04-04T18:30:13Z</time></trkpt><trkpt lat="51.04873204603537" lon="2.3834596231447565"><ele>5.285714285714286</ele><time>2026-04-04T18:30:15Z</time></trkpt><trkpt lat="51.04879671860631" lon="2.383463852300546"><ele>5.142857142857142</ele><time>2026-04-04T18:30:17Z</time></trkpt><trkpt lat="51.048859778693746" lon="2.3835457661504598"><ele>5.0</ele><time>2026-04-04T18:30:20Z</time></trkpt><trkpt lat="51.04890418243971" lon="2.3836500250826664"><ele>5.0</ele><time>2026-04-04T18:30:23Z</time></trkpt><trkpt lat="51.0489436940228" lon="2.38374451839557"><ele>5.0</ele><time>2026-04-04T18:30:26Z</time></trkpt><trkpt lat="51.04898381592461" lon="2.3838340353579968"><ele>5.0</ele><time>2026-04-04T18:30:29Z</time></trkpt><trkpt lat="51.04901290728067" lon="2.3839448340363325"><ele>5.0</ele><time>2026-04-04T18:30:33Z</time></trkpt><trkpt lat="51.049035849302555" lon="2.3840518631212273"><ele>5.0</ele><time>2026-04-04T18:30:36Z</time></trkpt><trkpt lat="51.04905466773897" lon="2.384182548369505"><ele>5.0</ele><time>2026-04-04T18:30:39Z</time></trkpt><trkpt lat="51.04906743529029" lon="2.3842958871167323"><ele>5.0</ele><time>2026-04-04T18:30:41Z</time></trkpt><trkpt lat="51.04907060851355" lon="2.3844000602335846"><ele>4.833333333333334</ele><time>2026-04-04T18:30:43Z</time></trkpt><trkpt lat="51.049052719539745" lon="2.3845113899911135"><ele>4.666666666666667</ele><time>2026-04-04T18:30:45Z</time></trkpt><trkpt lat="51.049075151861366" lon="2.3846506611348817"><ele>4.5</ele><time>2026-04-04T18:30:48Z</time></trkpt><trkpt lat="51.04909228652609" lon="2.384773295226569"><ele>4.333333333333333</ele><time>2026-04-04T18:30:51Z</time></trkpt><trkpt lat="51.04910273418504" lon="2.3849021875097227"><ele>4.166666666666666</ele><time>2026-04-04T18:30:54Z</time></trkpt><trkpt lat="51.04912412156478" lon="2.3850375371823045"><ele>4.0</ele><time>2026-04-04T18:30:57Z</time></trkpt><trkpt lat="51.04913279053934" lon="2.3851523653920808"><ele>3.9999999999999996</ele><time>2026-04-04T18:30:59Z</time></trkpt><trkpt lat="51.0491448892229" lon="2.385295163516506"><ele>4.0</ele><time>2026-04-04T18:31:02Z</time></trkpt><trkpt lat="51.04915940915188" lon="2.385396798440554"><ele>4.0</ele><time>2026-04-04T18:31:04Z</time></trkpt><trkpt lat="51.04917834300601" lon="2.385514664321547"><ele>4.0</ele><time>2026-04-04T18:31:05.999Z</time></trkpt><trkpt lat="51.049200086446426" lon="2.385625376995361"><ele>3.9999999999999996</ele><time>2026-04-04T18:31:07.999Z</time></trkpt><trkpt lat="51.049227166946736" lon="2.3857422413506115"><ele>4.0</ele><time>2026-04-04T18:31:09.999Z</time></trkpt><trkpt lat="51.049252189420876" lon="2.3858604103252574"><ele>4.142857142857142</ele><time>2026-04-04T18:31:11.999Z</time></trkpt><trkpt lat="51.04928538252981" lon="2.3859741837401667"><ele>4.285714285714286</ele><time>2026-04-04T18:31:13.999Z</time></trkpt><trkpt lat="51.04931254639993" lon="2.3860932230658363"><ele>4.428571428571429</ele><time>2026-04-04T18:31:15.999Z</time></trkpt><trkpt lat="51.04932873421044" lon="2.386218483410807"><ele>4.571428571428571</ele><time>2026-04-04T18:31:17.999Z</time></trkpt><trkpt lat="51.04935528558917" lon="2.386327199500547"><ele>4.714285714285714</ele><time>2026-04-04T18:31:19.999Z</time></trkpt><trkpt lat="51.04936895909668" lon="2.386425851577905"><ele>4.857142857142857</ele><time>2026-04-04T18:31:21.999Z</time></trkpt><trkpt lat="51.04938203037304" lon="2.386523969480546"><ele>5.0</ele><time>2026-04-04T18:31:23.999Z</time></trkpt><trkpt lat="51.049420876948524" lon="2.386642396050129"><ele>5.0</ele><time>2026-04-04T18:31:26.999Z</time></trkpt><trkpt lat="51.04944169226921" lon="2.386742867625641"><ele>5.0</ele><time>2026-04-04T18:31:29.999Z</time></trkpt><trkpt lat="51.04946291523729" lon="2.386865480897161"><ele>5.0</ele><time>2026-04-04T18:31:32.999Z</time></trkpt><trkpt lat="51.04948564280388" lon="2.38701478422167"><ele>5.0</ele><time>2026-04-04T18:31:35.999Z</time></trkpt><trkpt lat="51.049500721951375" lon="2.387113589009688"><ele>5.0</ele><time>2026-04-04T18:31:37.999Z</time></trkpt><trkpt lat="51.049508840644414" lon="2.3872171060055023"><ele>5.0</ele><time>2026-04-04T18:31:39.999Z</time></trkpt><trkpt lat="51.04950942735143" lon="2.3873259606516988"><ele>5.0</ele><time>2026-04-04T18:31:41.999Z</time></trkpt><trkpt lat="51.049529140244665" lon="2.387455090969832"><ele>5.5</ele><time>2026-04-04T18:31:43.999Z</time></trkpt><trkpt lat="51.04956226150707" lon="2.387555289027962"><ele>6.0</ele><time>2026-04-04T18:31:45.999Z</time></trkpt><trkpt lat="51.04961253769939" lon="2.387679412052126"><ele>6.5</ele><time>2026-04-04T18:31:48.999Z</time></trkpt><trkpt lat="51.049664541052856" lon="2.387760194435017"><ele>7.0</ele><time>2026-04-04T18:31:50.999Z</time></trkpt><trkpt lat="51.049737643800015" lon="2.3878342660440763"><ele>7.499999999999999</ele><time>2026-04-04T18:31:53.999Z</time></trkpt><trkpt lat="51.04979185218457" lon="2.3879255337550496"><ele>8.0</ele><time>2026-04-04T18:31:56.999Z</time></trkpt><trkpt lat="51.049847556744325" lon="2.3880133325125703"><ele>8.428571428571429</ele><time>2026-04-04T18:32:00.999Z</time></trkpt><trkpt lat="51.049895929786445" lon="2.3880890555353007"><ele>8.857142857142856</ele><time>2026-04-04T18:32:03.999Z</time></trkpt><trkpt lat="51.04991897068045" lon="2.388213957662777"><ele>9.285714285714285</ele><time>2026-04-04T18:32:06.999Z</time></trkpt><trkpt lat="51.04994033446857" lon="2.3883386607280945"><ele>9.714285714285714</ele><time>2026-04-04T18:32:09.999Z</time></trkpt><trkpt lat="51.04995250126578" lon="2.388444982311486"><ele>10.142857142857142</ele><time>2026-04-04T18:32:12.999Z</time></trkpt><trkpt lat="51.04996770919873" lon="2.3885672235928843"><ele>10.571428571428571</ele><time>2026-04-04T18:32:16.999Z</time></trkpt><trkpt lat="51.04998818116481" lon="2.3886645723721642"><ele>11.0</ele><time>2026-04-04T18:32:21Z</time></trkpt><trkpt lat="51.04998657709445" lon="2.388786289918251"><ele>10.714285714285715</ele><time>2026-04-04T18:32:26Z</time></trkpt><trkpt lat="51.04999537331138" lon="2.3888900321593787"><ele>10.428571428571429</ele><time>2026-04-04T18:32:31Z</time></trkpt><trkpt lat="51.05000399943219" lon="2.388990278765193"><ele>10.142857142857142</ele><time>2026-04-04T18:32:34Z</time></trkpt><trkpt lat="51.04998670103355" lon="2.3890956133505474"><ele>9.857142857142858</ele><time>2026-04-04T18:32:37Z</time></trkpt><trkpt lat="51.04991184480465" lon="2.3890600146484546"><ele>9.571428571428571</ele><time>2026-04-04T18:32:40Z</time></trkpt><trkpt lat="51.04983322215464" lon="2.3890669174025607"><ele>9.285714285714286</ele><time>2026-04-04T18:32:44Z</time></trkpt><trkpt lat="51.04979435686577" lon="2.389177382172581"><ele>9.0</ele><time>2026-04-04T18:32:47Z</time></trkpt><trkpt lat="51.04978822518757" lon="2.3893083745617574"><ele>9.0</ele><time>2026-04-04T18:32:50Z</time></trkpt><trkpt lat="51.04976014968305" lon="2.389451071220513"><ele>9.0</ele><time>2026-04-04T18:32:53Z</time></trkpt><trkpt lat="51.04973709747951" lon="2.389584652012256"><ele>9.0</ele><time>2026-04-04T18:32:56Z</time></trkpt><trkpt lat="51.049689141905105" lon="2.38969274237251"><ele>9.0</ele><time>2026-04-04T18:32:59Z</time></trkpt><trkpt lat="51.049691781043165" lon="2.389825027922692"><ele>9.0</ele><time>2026-04-04T18:33:01.999Z</time></trkpt><trkpt lat="51.04970394176778" lon="2.3899313420436767"><ele>9.0</ele><time>2026-04-04T18:33:03.999Z</time></trkpt><trkpt lat="51.04971109944201" lon="2.390040027664684"><ele>8.857142857142858</ele><time>2026-04-04T18:33:05.999Z</time></trkpt><trkpt lat="51.04971959047523" lon="2.390157721464539"><ele>8.714285714285715</ele><time>2026-04-04T18:33:07.999Z</time></trkpt><trkpt lat="51.049727549205365" lon="2.3902807743747414"><ele>8.571428571428571</ele><time>2026-04-04T18:33:09.999Z</time></trkpt><trkpt lat="51.049728725219936" lon="2.3903885706120795"><ele>8.428571428571429</ele><time>2026-04-04T18:33:11.999Z</time></trkpt><trkpt lat="51.04975793461811" lon="2.3905060837616636"><ele>8.285714285714285</ele><time>2026-04-04T18:33:14.999Z</time></trkpt><trkpt lat="51.049765348686215" lon="2.390610785744778"><ele>8.142857142857142</ele><time>2026-04-04T18:33:16.999Z</time></trkpt><trkpt lat="51.049774363416475" lon="2.3907155219467295"><ele>8.0</ele><time>2026-04-04T18:33:18.999Z</time></trkpt><trkpt lat="51.049837725364505" lon="2.390762515817288"><ele>8.333333333333332</ele><time>2026-04-04T18:33:20.999Z</time></trkpt><trkpt lat="51.049816291856814" lon="2.3909249766892686"><ele>8.666666666666666</ele><time>2026-04-04T18:33:22.999Z</time></trkpt><trkpt lat="51.0498155430025" lon="2.3910436903956716"><ele>9.0</ele><time>2026-04-04T18:33:24.999Z</time></trkpt><trkpt lat="51.049839519028346" lon="2.3911620105761826"><ele>9.333333333333334</ele><time>2026-04-04T18:33:26.999Z</time></trkpt><trkpt lat="51.04986672249538" lon="2.391276743295797"><ele>9.666666666666668</ele><time>2026-04-04T18:33:28.999Z</time></trkpt><trkpt lat="51.04987645550972" lon="2.391413073258882"><ele>10.0</ele><time>2026-04-04T18:33:30.999Z</time></trkpt><trkpt lat="51.04989507103295" lon="2.3915392872828343"><ele>9.833333333333334</ele><time>2026-04-04T18:33:32.999Z</time></trkpt><trkpt lat="51.04988996848871" lon="2.3916754807541367"><ele>9.666666666666668</ele><time>2026-04-04T18:33:34.999Z</time></trkpt><trkpt lat="51.04990971487863" lon="2.3917930513862675"><ele>9.5</ele><time>2026-04-04T18:33:36.999Z</time></trkpt><trkpt lat="51.04992551831554" lon="2.3919086739390245"><ele>9.333333333333334</ele><time>2026-04-04T18:33:38.999Z</time></trkpt><trkpt lat="51.04994342772811" lon="2.392043020471755"><ele>9.166666666666666</ele><time>2026-04-04T18:33:40.999Z</time></trkpt><trkpt lat="51.049975520304024" lon="2.3921412763527083"><ele>9.0</ele><time>2026-04-04T18:33:42.999Z</time></trkpt><trkpt lat="51.04998020709774" lon="2.3922449467712505"><ele>8.833333333333334</ele><time>2026-04-04T18:33:44.999Z</time></trkpt><trkpt lat="51.04997951507117" lon="2.3923477653107805"><ele>8.666666666666666</ele><time>2026-04-04T18:33:46.999Z</time></trkpt><trkpt lat="51.0499855333155" lon="2.3924653698437384"><ele>8.5</ele><time>2026-04-04T18:33:48.999Z</time></trkpt><trkpt lat="51.05000321872845" lon="2.392602099019348"><ele>8.333333333333332</ele><time>2026-04-04T18:33:50.999Z</time></trkpt><trkpt lat="51.05003598364878" lon="2.3927331686382587"><ele>8.166666666666666</ele><time>2026-04-04T18:33:52.999Z</time></trkpt><trkpt lat="51.050062485008716" lon="2.3928614202772307"><ele>8.0</ele><time>2026-04-04T18:33:54.999Z</time></trkpt><trkpt lat="51.05008994583249" lon="2.393003957938841"><ele>8.0</ele><time>2026-04-04T18:33:56.999Z</time></trkpt><trkpt lat="51.05010862810534" lon="2.3931542891978537"><ele>8.0</ele><time>2026-04-04T18:33:58.999Z</time></trkpt><trkpt lat="51.05013781859397" lon="2.3932939623142415"><ele>8.0</ele><time>2026-04-04T18:34:00.999Z</time></trkpt><trkpt lat="51.05016330154518" lon="2.3934366299050707"><ele>8.0</ele><time>2026-04-04T18:34:02.999Z</time></trkpt><trkpt lat="51.05019095592999" lon="2.393598303781003"><ele>8.0</ele><time>2026-04-04T18:34:04.999Z</time></trkpt><trkpt lat="51.05020702731735" lon="2.393756691358044"><ele>8.333333333333332</ele><time>2026-04-04T18:34:06.999Z</time></trkpt><trkpt lat="51.0502357662702" lon="2.3938915517850408"><ele>8.666666666666666</ele><time>2026-04-04T18:34:08.999Z</time></trkpt><trkpt lat="51.050269838778476" lon="2.3939831515816903"><ele>9.0</ele><time>2026-04-04T18:34:11.999Z</time></trkpt><trkpt lat="51.05028100311222" lon="2.394137115521069"><ele>9.333333333333334</ele><time>2026-04-04T18:34:14.999Z</time></trkpt><trkpt lat="51.05030010715725" lon="2.394260542122627"><ele>9.666666666666668</ele><time>2026-04-04T18:34:16.999Z</time></trkpt><trkpt lat="51.05031558553078" lon="2.3943842068444523"><ele>10.0</ele><time>2026-04-04T18:34:18.999Z</time></trkpt><trkpt lat="51.05033626330576" lon="2.394510771456056"><ele>10.0</ele><time>2026-04-04T18:34:20.998Z</time></trkpt><trkpt lat="51.05036033308796" lon="2.3946400041087914"><ele>10.0</ele><time>2026-04-04T18:34:22.998Z</time></trkpt><trkpt lat="51.05037893557132" lon="2.3947694615166673"><ele>10.0</ele><time>2026-04-04T18:34:25Z</time></trkpt><trkpt lat="51.05039376122565" lon="2.394909644470572"><ele>10.0</ele><time>2026-04-04T18:34:27Z</time></trkpt><trkpt lat="51.05041184502529" lon="2.3950287059076762"><ele>10.0</ele><time>2026-04-04T18:34:29Z</time></trkpt><trkpt lat="51.05044106936541" lon="2.3951488005718864"><ele>10.0</ele><time>2026-04-04T18:34:31Z</time></trkpt><trkpt lat="51.050456803681456" lon="2.395274180546533"><ele>10.0</ele><time>2026-04-04T18:34:33Z</time></trkpt><trkpt lat="51.050458681407925" lon="2.395398920637126"><ele>10.0</ele><time>2026-04-04T18:34:35Z</time></trkpt><trkpt lat="51.050471685075735" lon="2.3955320111040215"><ele>10.0</ele><time>2026-04-04T18:34:37Z</time></trkpt><trkpt lat="51.05047367106768" lon="2.395660156640605"><ele>10.0</ele><time>2026-04-04T18:34:39Z</time></trkpt><trkpt lat="51.05048017788321" lon="2.395805159656523"><ele>10.0</ele><time>2026-04-04T18:34:41Z</time></trkpt><trkpt lat="51.0505044125551" lon="2.3959286265219046"><ele>10.0</ele><time>2026-04-04T18:34:43Z</time></trkpt><trkpt lat="51.05052347378118" lon="2.3960449733857763"><ele>10.166666666666668</ele><time>2026-04-04T18:34:45Z</time></trkpt><trkpt lat="51.05049135492975" lon="2.3961606102480735"><ele>10.333333333333334</ele><time>2026-04-04T18:34:47Z</time></trkpt><trkpt lat="51.05052046805873" lon="2.3962637967183014"><ele>10.5</ele><time>2026-04-04T18:34:50Z</time></trkpt><trkpt lat="51.050534655223515" lon="2.3964536063186244"><ele>10.666666666666666</ele><time>2026-04-04T18:34:52Z</time></trkpt><trkpt lat="51.05058092795751" lon="2.3965946209481337"><ele>10.833333333333332</ele><time>2026-04-04T18:34:54Z</time></trkpt><trkpt lat="51.05061928203366" lon="2.3967019431732752"><ele>11.0</ele><time>2026-04-04T18:34:56Z</time></trkpt><trkpt lat="51.05063523370775" lon="2.3968218147254787"><ele>11.0</ele><time>2026-04-04T18:34:58Z</time></trkpt><trkpt lat="51.05064680822058" lon="2.3969585791040093"><ele>11.0</ele><time>2026-04-04T18:35:00Z</time></trkpt><trkpt lat="51.05065871747788" lon="2.397088889551332"><ele>11.0</ele><time>2026-04-04T18:35:02Z</time></trkpt><trkpt lat="51.05066402768631" lon="2.397210604884284"><ele>11.0</ele><time>2026-04-04T18:35:04Z</time></trkpt><trkpt lat="51.050677329531624" lon="2.397335842532812"><ele>11.0</ele><time>2026-04-04T18:35:06Z</time></trkpt><trkpt lat="51.05067643009321" lon="2.397449957295865"><ele>11.0</ele><time>2026-04-04T18:35:08Z</time></trkpt><trkpt lat="51.050687346484956" lon="2.3975673271167324"><ele>10.833333333333332</ele><time>2026-04-04T18:35:10Z</time></trkpt><trkpt lat="51.05069607539452" lon="2.3976774113288384"><ele>10.666666666666666</ele><time>2026-04-04T18:35:12Z</time></trkpt><trkpt lat="51.05071376635097" lon="2.3977949025899665"><ele>10.5</ele><time>2026-04-04T18:35:14Z</time></trkpt><trkpt lat="51.050720625191126" lon="2.3979178721489074"><ele>10.333333333333334</ele><time>2026-04-04T18:35:16Z</time></trkpt><trkpt lat="51.050736921701045" lon="2.398027606734769"><ele>10.166666666666668</ele><time>2026-04-04T18:35:17.999Z</time></trkpt><trkpt lat="51.050757068714105" lon="2.398163615323674"><ele>10.0</ele><time>2026-04-04T18:35:20.999Z</time></trkpt><trkpt lat="51.05076832042629" lon="2.3983141082444233"><ele>10.0</ele><time>2026-04-04T18:35:23.999Z</time></trkpt><trkpt lat="51.05077117798186" lon="2.3984281447093716"><ele>10.0</ele><time>2026-04-04T18:35:25.999Z</time></trkpt><trkpt lat="51.05078307486531" lon="2.398539323955235"><ele>10.0</ele><time>2026-04-04T18:35:27.999Z</time></trkpt><trkpt lat="51.05079595308385" lon="2.3986591861421918"><ele>10.0</ele><time>2026-04-04T18:35:29.999Z</time></trkpt><trkpt lat="51.05082553726019" lon="2.398776587306474"><ele>10.0</ele><time>2026-04-04T18:35:31.999Z</time></trkpt><trkpt lat="51.05083114541119" lon="2.39889763597038"><ele>10.0</ele><time>2026-04-04T18:35:33.999Z</time></trkpt><trkpt lat="51.05085402732734" lon="2.3990163145788705"><ele>10.166666666666668</ele><time>2026-04-04T18:35:35.999Z</time></trkpt><trkpt lat="51.05087246345857" lon="2.399148782322178"><ele>10.333333333333334</ele><time>2026-04-04T18:35:37.999Z</time></trkpt><trkpt lat="51.050889194926434" lon="2.3992838434068466"><ele>10.5</ele><time>2026-04-04T18:35:39.999Z</time></trkpt><trkpt lat="51.050896324283364" lon="2.399424632850463"><ele>10.666666666666666</ele><time>2026-04-04T18:35:41.999Z</time></trkpt><trkpt lat="51.0509037898611" lon="2.3995489764104376"><ele>10.833333333333332</ele><time>2026-04-04T18:35:43.999Z</time></trkpt><trkpt lat="51.05093178473554" lon="2.399656510546703"><ele>11.0</ele><time>2026-04-04T18:35:45.999Z</time></trkpt><trkpt lat="51.05094910262096" lon="2.399761523389117"><ele>11.166666666666666</ele><time>2026-04-04T18:35:47.999Z</time></trkpt><trkpt lat="51.05097984892867" lon="2.399915951392166"><ele>11.333333333333332</ele><time>2026-04-04T18:35:50.999Z</time></trkpt><trkpt lat="51.05099322375526" lon="2.4000288830827023"><ele>11.5</ele><time>2026-04-04T18:35:52.999Z</time></trkpt><trkpt lat="51.05100786888885" lon="2.400133921837597"><ele>11.666666666666666</ele><time>2026-04-04T18:35:54.999Z</time></trkpt><trkpt lat="51.05102565074003" lon="2.4002616936024523"><ele>11.833333333333334</ele><time>2026-04-04T18:35:56.999Z</time></trkpt><trkpt lat="51.05103363259919" lon="2.4003932614393313"><ele>12.0</ele><time>2026-04-04T18:35:58.999Z</time></trkpt><trkpt lat="51.051059099067544" lon="2.4004958832986745"><ele>11.833333333333334</ele><time>2026-04-04T18:36:00.999Z</time></trkpt><trkpt lat="51.051072323630535" lon="2.4006024873514935"><ele>11.666666666666666</ele><time>2026-04-04T18:36:02.999Z</time></trkpt><trkpt lat="51.051111886999735" lon="2.4007107038846955"><ele>11.5</ele><time>2026-04-04T18:36:04.999Z</time></trkpt><trkpt lat="51.05114442565612" lon="2.4008289543165326"><ele>11.333333333333332</ele><time>2026-04-04T18:36:06.999Z</time></trkpt><trkpt lat="51.05117062761293" lon="2.4009359179939076"><ele>11.166666666666666</ele><time>2026-04-04T18:36:08.999Z</time></trkpt><trkpt lat="51.05119109506755" lon="2.401059487295949"><ele>11.0</ele><time>2026-04-04T18:36:10.999Z</time></trkpt><trkpt lat="51.05120439785982" lon="2.4011880427823686"><ele>11.0</ele><time>2026-04-04T18:36:12.999Z</time></trkpt><trkpt lat="51.051214911396116" lon="2.401324421031735"><ele>11.0</ele><time>2026-04-04T18:36:14.999Z</time></trkpt><trkpt lat="51.05123068065219" lon="2.4014413528593086"><ele>11.0</ele><time>2026-04-04T18:36:16.999Z</time></trkpt><trkpt lat="51.05124529348116" lon="2.4015826455536198"><ele>11.0</ele><time>2026-04-04T18:36:19.999Z</time></trkpt><trkpt lat="51.051272575138064" lon="2.401678470349941"><ele>11.0</ele><time>2026-04-04T18:36:21.999Z</time></trkpt><trkpt lat="51.05130735678147" lon="2.4017811852478173"><ele>11.0</ele><time>2026-04-04T18:36:24.999Z</time></trkpt><trkpt lat="51.051330205357345" lon="2.401886760131534"><ele>11.0</ele><time>2026-04-04T18:36:27.999Z</time></trkpt><trkpt lat="51.051361209503455" lon="2.401995498078997"><ele>11.0</ele><time>2026-04-04T18:36:32Z</time></trkpt><trkpt lat="51.05138557762365" lon="2.402108773182052"><ele>11.0</ele><time>2026-04-04T18:36:36Z</time></trkpt><trkpt lat="51.05141365407138" lon="2.402244767260765"><ele>11.0</ele><time>2026-04-04T18:36:39Z</time></trkpt><trkpt lat="51.05141549979214" lon="2.4023803345780923"><ele>11.0</ele><time>2026-04-04T18:36:42Z</time></trkpt><trkpt lat="51.0514353213566" lon="2.402492297306208"><ele>11.0</ele><time>2026-04-04T18:36:44Z</time></trkpt><trkpt lat="51.05145349627524" lon="2.402606705551702"><ele>11.0</ele><time>2026-04-04T18:36:46Z</time></trkpt><trkpt lat="51.05144701653735" lon="2.4027456387393853"><ele>11.0</ele><time>2026-04-04T18:36:48Z</time></trkpt><trkpt lat="51.05145546419632" lon="2.402868700259975"><ele>11.0</ele><time>2026-04-04T18:36:50Z</time></trkpt><trkpt lat="51.05146500145589" lon="2.4029742443799265"><ele>11.0</ele><time>2026-04-04T18:36:52Z</time></trkpt><trkpt lat="51.051487701859315" lon="2.4031140916123253"><ele>11.0</ele><time>2026-04-04T18:36:55Z</time></trkpt><trkpt lat="51.05152171568943" lon="2.403258263472109"><ele>11.0</ele><time>2026-04-04T18:36:58Z</time></trkpt><trkpt lat="51.05153432579564" lon="2.4033841877918896"><ele>10.666666666666666</ele><time>2026-04-04T18:37:01Z</time></trkpt><trkpt lat="51.05153993117841" lon="2.403494859254035"><ele>10.333333333333332</ele><time>2026-04-04T18:37:03Z</time></trkpt><trkpt lat="51.05156128045333" lon="2.4036025738487306"><ele>10.0</ele><time>2026-04-04T18:37:05Z</time></trkpt><trkpt lat="51.051586349762005" lon="2.403704682438808"><ele>9.666666666666666</ele><time>2026-04-04T18:37:07Z</time></trkpt><trkpt lat="51.05161826837586" lon="2.4038283950059443"><ele>9.333333333333334</ele><time>2026-04-04T18:37:09Z</time></trkpt><trkpt lat="51.05163708871268" lon="2.4039651963727873"><ele>9.0</ele><time>2026-04-04T18:37:11Z</time></trkpt><trkpt lat="51.05169682234386" lon="2.4041009726261677"><ele>8.833333333333334</ele><time>2026-04-04T18:37:14Z</time></trkpt><trkpt lat="51.051727273936336" lon="2.4042337145971415"><ele>8.666666666666666</ele><time>2026-04-04T18:37:17Z</time></trkpt><trkpt lat="51.051731670488095" lon="2.404373347506636"><ele>8.5</ele><time>2026-04-04T18:37:21Z</time></trkpt><trkpt lat="51.05176153756641" lon="2.4045037228968713"><ele>8.333333333333332</ele><time>2026-04-04T18:37:24Z</time></trkpt><trkpt lat="51.05174456627406" lon="2.4046128691568516"><ele>8.166666666666666</ele><time>2026-04-04T18:37:27Z</time></trkpt><trkpt lat="51.051664947341315" lon="2.4046581747887683"><ele>8.0</ele><time>2026-04-04T18:37:30.999Z</time></trkpt><trkpt lat="51.0515796590232" lon="2.4046815281502654"><ele>7.999999999999999</ele><time>2026-04-04T18:37:33.999Z</time></trkpt><trkpt lat="51.05150324939913" lon="2.4047253601238747"><ele>8.0</ele><time>2026-04-04T18:37:36.999Z</time></trkpt><trkpt lat="51.05143163716944" lon="2.4047474785991843"><ele>8.0</ele><time>2026-04-04T18:37:40.999Z</time></trkpt><trkpt lat="51.0514405745055" lon="2.4046413269267193"><ele>8.0</ele><time>2026-04-04T18:41:27Z</time></trkpt><trkpt lat="51.05150173576663" lon="2.4045401446724806"><ele>7.999999999999999</ele><time>2026-04-04T18:44:19.999Z</time></trkpt><trkpt lat="51.05154135534525" lon="2.404441545906507"><ele>8.0</ele><time>2026-04-04T18:44:30.999Z</time></trkpt><trkpt lat="51.05163577429962" lon="2.4044083680829655"><ele>7.999999999999999</ele><time>2026-04-04T18:44:37.999Z</time></trkpt><trkpt lat="51.05171363490413" lon="2.4043954406920887"><ele>8.0</ele><time>2026-04-04T18:44:42.999Z</time></trkpt><trkpt lat="51.051776949411" lon="2.4043660400549802"><ele>8.0</ele><time>2026-04-04T18:44:47.999Z</time></trkpt><trkpt lat="51.05184256602335" lon="2.404282981176577"><ele>8.0</ele><time>2026-04-04T18:44:51.999Z</time></trkpt><trkpt lat="51.051846403348144" lon="2.4041668881351925"><ele>7.999999999999999</ele><time>2026-04-04T18:44:55Z</time></trkpt><trkpt lat="51.0517862023252" lon="2.4040636931518504"><ele>8.0</ele><time>2026-04-04T18:44:59Z</time></trkpt><trkpt lat="51.05174710624764" lon="2.403968615560869"><ele>7.999999999999999</ele><time>2026-04-04T18:45:02Z</time></trkpt><trkpt lat="51.05173990504253" lon="2.4038631693285364"><ele>8.0</ele><time>2026-04-04T18:45:05Z</time></trkpt><trkpt lat="51.05176213013195" lon="2.403731319362872"><ele>8.0</ele><time>2026-04-04T18:45:08Z</time></trkpt><trkpt lat="51.0517547849192" lon="2.403577887811831"><ele>8.0</ele><time>2026-04-04T18:45:11Z</time></trkpt><trkpt lat="51.05172870729834" lon="2.4034744527201664"><ele>7.999999999999999</ele><time>2026-04-04T18:45:13Z</time></trkpt><trkpt lat="51.05170204205683" lon="2.4033614861289596"><ele>8.0</ele><time>2026-04-04T18:45:15Z</time></trkpt><trkpt lat="51.05168138560748" lon="2.4032600642256265"><ele>8.166666666666666</ele><time>2026-04-04T18:45:17Z</time></trkpt><trkpt lat="51.051644238997554" lon="2.4031391378982314"><ele>8.333333333333332</ele><time>2026-04-04T18:45:20Z</time></trkpt><trkpt lat="51.05158656812133" lon="2.403055692784421"><ele>8.5</ele><time>2026-04-04T18:45:23Z</time></trkpt><trkpt lat="51.05153383581566" lon="2.4029558708008194"><ele>8.666666666666666</ele><time>2026-04-04T18:45:26Z</time></trkpt><trkpt lat="51.05148783351982" lon="2.4028244008230044"><ele>8.833333333333334</ele><time>2026-04-04T18:45:29Z</time></trkpt><trkpt lat="51.05146740315175" lon="2.4027057629672504"><ele>9.0</ele><time>2026-04-04T18:45:31Z</time></trkpt><trkpt lat="51.05145418310376" lon="2.402604521807888"><ele>9.333333333333334</ele><time>2026-04-04T18:45:33Z</time></trkpt><trkpt lat="51.05142418995318" lon="2.4024724146492225"><ele>9.666666666666666</ele><time>2026-04-04T18:45:36Z</time></trkpt><trkpt lat="51.05141781759388" lon="2.4023685368019465"><ele>10.0</ele><time>2026-04-04T18:45:39Z</time></trkpt><trkpt lat="51.051407634245145" lon="2.402241613527148"><ele>10.333333333333332</ele><time>2026-04-04T18:45:42Z</time></trkpt><trkpt lat="51.05139044937032" lon="2.4020905812184274"><ele>10.666666666666666</ele><time>2026-04-04T18:45:45Z</time></trkpt><trkpt lat="51.051369922172604" lon="2.4019794085708175"><ele>11.0</ele><time>2026-04-04T18:45:47Z</time></trkpt><trkpt lat="51.051341380682715" lon="2.4018527345795357"><ele>11.0</ele><time>2026-04-04T18:45:49Z</time></trkpt><trkpt lat="51.05131963677796" lon="2.4017067762560784"><ele>11.0</ele><time>2026-04-04T18:45:51Z</time></trkpt><trkpt lat="51.05130001441889" lon="2.4015470078670202"><ele>11.0</ele><time>2026-04-04T18:45:53Z</time></trkpt><trkpt lat="51.05127412454853" lon="2.401383864636542"><ele>11.0</ele><time>2026-04-04T18:45:55Z</time></trkpt><trkpt lat="51.05124003939848" lon="2.401239489681622"><ele>11.0</ele><time>2026-04-04T18:45:56.999Z</time></trkpt><trkpt lat="51.05120479940406" lon="2.4011104331516324"><ele>11.0</ele><time>2026-04-04T18:45:58.999Z</time></trkpt><trkpt lat="51.05118953914056" lon="2.4009808065557015"><ele>11.0</ele><time>2026-04-04T18:46:00.999Z</time></trkpt><trkpt lat="51.05117865171559" lon="2.4008592304736935"><ele>11.0</ele><time>2026-04-04T18:46:02.999Z</time></trkpt><trkpt lat="51.05116771065101" lon="2.4007456976943757"><ele>11.0</ele><time>2026-04-04T18:46:04.999Z</time></trkpt><trkpt lat="51.05115536745659" lon="2.400644121531522"><ele>11.0</ele><time>2026-04-04T18:46:06.999Z</time></trkpt><trkpt lat="51.051148060172956" lon="2.4005184688209065"><ele>11.0</ele><time>2026-04-04T18:46:08.999Z</time></trkpt><trkpt lat="51.05113340832827" lon="2.400391852647193"><ele>11.0</ele><time>2026-04-04T18:46:10.999Z</time></trkpt><trkpt lat="51.05110350800513" lon="2.400246106139568"><ele>11.0</ele><time>2026-04-04T18:46:12.999Z</time></trkpt><trkpt lat="51.05107479782489" lon="2.4001035493396943"><ele>11.0</ele><time>2026-04-04T18:46:14.999Z</time></trkpt><trkpt lat="51.051071142788025" lon="2.3999715601923053"><ele>11.0</ele><time>2026-04-04T18:46:16.999Z</time></trkpt><trkpt lat="51.05104445399795" lon="2.3998058758232945"><ele>11.0</ele><time>2026-04-04T18:46:18.999Z</time></trkpt><trkpt lat="51.051032537890876" lon="2.399623368984178"><ele>11.0</ele><time>2026-04-04T18:46:20.999Z</time></trkpt><trkpt lat="51.051034986942916" lon="2.3995223698783574"><ele>11.0</ele><time>2026-04-04T18:46:21.999Z</time></trkpt><trkpt lat="51.05101832736896" lon="2.399425638722658"><ele>11.0</ele><time>2026-04-04T18:46:22.999Z</time></trkpt><trkpt lat="51.05098718333958" lon="2.3992463794167573"><ele>11.0</ele><time>2026-04-04T18:46:24.999Z</time></trkpt><trkpt lat="51.050965827009456" lon="2.3990809339047594"><ele>11.0</ele><time>2026-04-04T18:46:26.999Z</time></trkpt><trkpt lat="51.05094282115791" lon="2.3989279907224663"><ele>11.0</ele><time>2026-04-04T18:46:28.999Z</time></trkpt><trkpt lat="51.05091692188981" lon="2.3987796656394957"><ele>10.8</ele><time>2026-04-04T18:46:30.999Z</time></trkpt><trkpt lat="51.050895109026435" lon="2.3986040656192067"><ele>10.600000000000001</ele><time>2026-04-04T18:46:32.999Z</time></trkpt><trkpt lat="51.050884582685754" lon="2.3985029553439605"><ele>10.4</ele><time>2026-04-04T18:46:33.999Z</time></trkpt><trkpt lat="51.050856229755325" lon="2.3983352522456554"><ele>10.2</ele><time>2026-04-04T18:46:35.999Z</time></trkpt><trkpt lat="51.05084303307941" lon="2.398178655682291"><ele>10.0</ele><time>2026-04-04T18:46:37.999Z</time></trkpt><trkpt lat="51.050832781893774" lon="2.398026245464997"><ele>10.0</ele><time>2026-04-04T18:46:39.999Z</time></trkpt><trkpt lat="51.0508079878733" lon="2.3978930576390423"><ele>10.0</ele><time>2026-04-04T18:46:41.999Z</time></trkpt><trkpt lat="51.05078742290522" lon="2.397765861692995"><ele>10.0</ele><time>2026-04-04T18:46:43.999Z</time></trkpt><trkpt lat="51.05076590054853" lon="2.397640435264928"><ele>10.0</ele><time>2026-04-04T18:46:45.999Z</time></trkpt><trkpt lat="51.050747248925724" lon="2.397464032622617"><ele>10.0</ele><time>2026-04-04T18:46:47.999Z</time></trkpt><trkpt lat="51.050730243473325" lon="2.3973006217481085"><ele>10.2</ele><time>2026-04-04T18:46:49.999Z</time></trkpt><trkpt lat="51.05070759334122" lon="2.397153444556215"><ele>10.4</ele><time>2026-04-04T18:46:51.999Z</time></trkpt><trkpt lat="51.050693194307094" lon="2.3970089185667667"><ele>10.600000000000001</ele><time>2026-04-04T18:46:53.999Z</time></trkpt><trkpt lat="51.050661276007524" lon="2.396857873105154"><ele>10.8</ele><time>2026-04-04T18:46:55.999Z</time></trkpt><trkpt lat="51.05062577776411" lon="2.396686498692165"><ele>11.0</ele><time>2026-04-04T18:46:57.999Z</time></trkpt><trkpt lat="51.0506042781686" lon="2.396504743284073"><ele>11.0</ele><time>2026-04-04T18:47:00Z</time></trkpt><trkpt lat="51.05057797311483" lon="2.3963551132865963"><ele>11.0</ele><time>2026-04-04T18:47:02Z</time></trkpt><trkpt lat="51.05056282645332" lon="2.396216046563068"><ele>11.0</ele><time>2026-04-04T18:47:04Z</time></trkpt><trkpt lat="51.05055059876952" lon="2.3960838294086284"><ele>11.0</ele><time>2026-04-04T18:47:06Z</time></trkpt><trkpt lat="51.05054609815198" lon="2.39596095965036"><ele>11.0</ele><time>2026-04-04T18:47:08Z</time></trkpt><trkpt lat="51.05053431177127" lon="2.395822543033037"><ele>11.0</ele><time>2026-04-04T18:47:10Z</time></trkpt><trkpt lat="51.05053091903454" lon="2.3956747187536624"><ele>11.0</ele><time>2026-04-04T18:47:12Z</time></trkpt><trkpt lat="51.05052224823712" lon="2.3955358207014643"><ele>11.0</ele><time>2026-04-04T18:47:14Z</time></trkpt><trkpt lat="51.050521246695844" lon="2.395404317533232"><ele>11.0</ele><time>2026-04-04T18:47:16Z</time></trkpt><trkpt lat="51.05051422985892" lon="2.3952845067867794"><ele>11.0</ele><time>2026-04-04T18:47:18Z</time></trkpt><trkpt lat="51.05050316022149" lon="2.395164587915232"><ele>11.0</ele><time>2026-04-04T18:47:20Z</time></trkpt><trkpt lat="51.05048744635193" lon="2.3950292609240935"><ele>11.0</ele><time>2026-04-04T18:47:22Z</time></trkpt><trkpt lat="51.050474900125586" lon="2.394888892202645"><ele>10.8</ele><time>2026-04-04T18:47:24Z</time></trkpt><trkpt lat="51.05046138665867" lon="2.394746243384387"><ele>10.600000000000001</ele><time>2026-04-04T18:47:26Z</time></trkpt><trkpt lat="51.05044429410255" lon="2.394601556405951"><ele>10.4</ele><time>2026-04-04T18:47:28Z</time></trkpt><trkpt lat="51.05041969566088" lon="2.394459693389436"><ele>10.2</ele><time>2026-04-04T18:47:30Z</time></trkpt><trkpt lat="51.05039071730773" lon="2.394321854149061"><ele>10.0</ele><time>2026-04-04T18:47:32Z</time></trkpt><trkpt lat="51.050379584557106" lon="2.3941801312221425"><ele>10.0</ele><time>2026-04-04T18:47:34Z</time></trkpt><trkpt lat="51.05036700706332" lon="2.3940322934803575"><ele>10.0</ele><time>2026-04-04T18:47:36Z</time></trkpt><trkpt lat="51.05036370409654" lon="2.3938912016128606"><ele>10.0</ele><time>2026-04-04T18:47:38Z</time></trkpt><trkpt lat="51.050329256847355" lon="2.393748912891475"><ele>10.0</ele><time>2026-04-04T18:47:40Z</time></trkpt><trkpt lat="51.0503145223124" lon="2.39360348022416"><ele>10.0</ele><time>2026-04-04T18:47:42Z</time></trkpt><trkpt lat="51.05027822489619" lon="2.3934671830789624"><ele>9.6</ele><time>2026-04-04T18:47:45Z</time></trkpt><trkpt lat="51.05025725494221" lon="2.393309058691318"><ele>9.2</ele><time>2026-04-04T18:47:46Z</time></trkpt><trkpt lat="51.05023411597671" lon="2.3931777797906215"><ele>8.8</ele><time>2026-04-04T18:47:48Z</time></trkpt><trkpt lat="51.05021362887516" lon="2.393035936025678"><ele>8.4</ele><time>2026-04-04T18:47:50Z</time></trkpt><trkpt lat="51.050195300702704" lon="2.3928876496707234"><ele>8.0</ele><time>2026-04-04T18:47:52Z</time></trkpt><trkpt lat="51.05016499998952" lon="2.392756362061185"><ele>8.0</ele><time>2026-04-04T18:47:54Z</time></trkpt><trkpt lat="51.05013121366337" lon="2.3926182839551666"><ele>8.0</ele><time>2026-04-04T18:47:56Z</time></trkpt><trkpt lat="51.050099235500774" lon="2.392460553633894"><ele>8.0</ele><time>2026-04-04T18:47:58Z</time></trkpt><trkpt lat="51.05009200541497" lon="2.3922911930104567"><ele>8.0</ele><time>2026-04-04T18:47:59.999Z</time></trkpt><trkpt lat="51.05009017828314" lon="2.392142309190039"><ele>8.0</ele><time>2026-04-04T18:48:01.999Z</time></trkpt><trkpt lat="51.05006598808616" lon="2.392048622542631"><ele>8.200000000000001</ele><time>2026-04-04T18:48:02.999Z</time></trkpt><trkpt lat="51.05004094616211" lon="2.391872350007527"><ele>8.4</ele><time>2026-04-04T18:48:04.999Z</time></trkpt><trkpt lat="51.04998060249846" lon="2.391816536382984"><ele>8.600000000000001</ele><time>2026-04-04T18:48:05.999Z</time></trkpt><trkpt lat="51.04999885545159" lon="2.3916510271539893"><ele>8.8</ele><time>2026-04-04T18:48:07.999Z</time></trkpt><trkpt lat="51.04994703976342" lon="2.3915272820468787"><ele>9.0</ele><time>2026-04-04T18:48:09.999Z</time></trkpt><trkpt lat="51.04991469790347" lon="2.39140681141284"><ele>9.166666666666666</ele><time>2026-04-04T18:48:11.999Z</time></trkpt><trkpt lat="51.04989406100041" lon="2.3912831064688764"><ele>9.333333333333334</ele><time>2026-04-04T18:48:13.999Z</time></trkpt><trkpt lat="51.049874511966976" lon="2.391167551854795"><ele>9.5</ele><time>2026-04-04T18:48:15.999Z</time></trkpt><trkpt lat="51.049871359626366" lon="2.391061239609256"><ele>9.666666666666668</ele><time>2026-04-04T18:48:17.999Z</time></trkpt><trkpt lat="51.0498571744113" lon="2.3909151903754418"><ele>9.833333333333334</ele><time>2026-04-04T18:48:20.999Z</time></trkpt><trkpt lat="51.04985000009154" lon="2.3907869998426645"><ele>10.0</ele><time>2026-04-04T18:48:23.999Z</time></trkpt><trkpt lat="51.049832685644716" lon="2.390662057862229"><ele>10.0</ele><time>2026-04-04T18:48:25.999Z</time></trkpt><trkpt lat="51.049808519411165" lon="2.3905246759609526"><ele>10.0</ele><time>2026-04-04T18:48:27.999Z</time></trkpt><trkpt lat="51.04977665983533" lon="2.3903851137915"><ele>10.0</ele><time>2026-04-04T18:48:29.999Z</time></trkpt><trkpt lat="51.04975842331488" lon="2.390238495596833"><ele>10.0</ele><time>2026-04-04T18:48:31.999Z</time></trkpt><trkpt lat="51.04975042170873" lon="2.390080395115702"><ele>10.0</ele><time>2026-04-04T18:48:33.999Z</time></trkpt><trkpt lat="51.04971956811313" lon="2.3899183832978577"><ele>9.833333333333334</ele><time>2026-04-04T18:48:35.999Z</time></trkpt><trkpt lat="51.04968847393193" lon="2.3897710831484638"><ele>9.666666666666668</ele><time>2026-04-04T18:48:37.999Z</time></trkpt><trkpt lat="51.04969229030643" lon="2.3896662040821655"><ele>9.5</ele><time>2026-04-04T18:48:39.999Z</time></trkpt><trkpt lat="51.049705708104504" lon="2.3895456414323126"><ele>9.333333333333334</ele><time>2026-04-04T18:48:42.999Z</time></trkpt><trkpt lat="51.049691516330014" lon="2.3893926741653706"><ele>9.166666666666666</ele><time>2026-04-04T18:48:44.999Z</time></trkpt><trkpt lat="51.04970329430369" lon="2.389244686325262"><ele>9.0</ele><time>2026-04-04T18:48:46.999Z</time></trkpt><trkpt lat="51.04968454027692" lon="2.389094746860071"><ele>9.0</ele><time>2026-04-04T18:48:48.999Z</time></trkpt><trkpt lat="51.049639213729996" lon="2.3889320928602507"><ele>9.0</ele><time>2026-04-04T18:48:50.999Z</time></trkpt><trkpt lat="51.04964604055079" lon="2.388744165672207"><ele>9.0</ele><time>2026-04-04T18:48:52.999Z</time></trkpt><trkpt lat="51.04965094720896" lon="2.3886409309816283"><ele>9.0</ele><time>2026-04-04T18:48:53.999Z</time></trkpt><trkpt lat="51.04963277449768" lon="2.3885375561503253"><ele>9.0</ele><time>2026-04-04T18:48:54.999Z</time></trkpt><trkpt lat="51.04959040330396" lon="2.388358630889981"><ele>8.8</ele><time>2026-04-04T18:48:56.999Z</time></trkpt><trkpt lat="51.04957092253158" lon="2.3881927133573644"><ele>8.600000000000001</ele><time>2026-04-04T18:48:58.999Z</time></trkpt><trkpt lat="51.049550326458295" lon="2.3880348095303634"><ele>8.4</ele><time>2026-04-04T18:49:00.999Z</time></trkpt><trkpt lat="51.04953776982727" lon="2.387885371131935"><ele>8.200000000000001</ele><time>2026-04-04T18:49:02.999Z</time></trkpt><trkpt lat="51.04953329488216" lon="2.3877427887652267"><ele>8.0</ele><time>2026-04-04T18:49:04.999Z</time></trkpt><trkpt lat="51.04953307245582" lon="2.387604191854535"><ele>8.0</ele><time>2026-04-04T18:49:07Z</time></trkpt><trkpt lat="51.049524959989434" lon="2.3874342700158073"><ele>8.0</ele><time>2026-04-04T18:49:09Z</time></trkpt><trkpt lat="51.04947356164625" lon="2.3872792776301943"><ele>8.0</ele><time>2026-04-04T18:49:11Z</time></trkpt><trkpt lat="51.04944615546838" lon="2.3871216065324274"><ele>8.0</ele><time>2026-04-04T18:49:13Z</time></trkpt><trkpt lat="51.04942197473251" lon="2.386982491948392"><ele>8.0</ele><time>2026-04-04T18:49:15Z</time></trkpt><trkpt lat="51.049399449383436" lon="2.3868529009639827"><ele>7.499999999999999</ele><time>2026-04-04T18:49:17Z</time></trkpt><trkpt lat="51.04940953466391" lon="2.3867274962456757"><ele>7.0</ele><time>2026-04-04T18:49:19Z</time></trkpt><trkpt lat="51.04939920323216" lon="2.386597719418903"><ele>6.5</ele><time>2026-04-04T18:49:21Z</time></trkpt><trkpt lat="51.04939378146356" lon="2.3864611381828245"><ele>6.0</ele><time>2026-04-04T18:49:23Z</time></trkpt><trkpt lat="51.049360646674806" lon="2.3863264925970737"><ele>5.5</ele><time>2026-04-04T18:49:25Z</time></trkpt><trkpt lat="51.049333584652196" lon="2.386179347854169"><ele>5.0</ele><time>2026-04-04T18:49:27Z</time></trkpt><trkpt lat="51.04930662184977" lon="2.386021682971389"><ele>5.0</ele><time>2026-04-04T18:49:29Z</time></trkpt><trkpt lat="51.04924475771498" lon="2.3859654533818757"><ele>5.0</ele><time>2026-04-04T18:49:30Z</time></trkpt><trkpt lat="51.049215777108685" lon="2.3857992203665175"><ele>5.0</ele><time>2026-04-04T18:49:32Z</time></trkpt><trkpt lat="51.04918214165299" lon="2.385610192277301"><ele>5.0</ele><time>2026-04-04T18:49:34Z</time></trkpt><trkpt lat="51.049150826268516" lon="2.385432758504198"><ele>5.0</ele><time>2026-04-04T18:49:36Z</time></trkpt><trkpt lat="51.0491232254346" lon="2.385276371503592"><ele>5.333333333333334</ele><time>2026-04-04T18:49:38Z</time></trkpt><trkpt lat="51.04909750733434" lon="2.3851306520711537"><ele>5.666666666666667</ele><time>2026-04-04T18:49:40Z</time></trkpt><trkpt lat="51.049074189698004" lon="2.384998701203942"><ele>6.0</ele><time>2026-04-04T18:49:42Z</time></trkpt><trkpt lat="51.0490520628684" lon="2.3848738092029897"><ele>6.333333333333334</ele><time>2026-04-04T18:49:44Z</time></trkpt><trkpt lat="51.04903053497518" lon="2.384752297797776"><ele>6.666666666666667</ele><time>2026-04-04T18:49:46Z</time></trkpt><trkpt lat="51.04900792839277" lon="2.384624697923021"><ele>7.0</ele><time>2026-04-04T18:49:48Z</time></trkpt><trkpt lat="51.048985211825375" lon="2.384496477188181"><ele>7.000000000000001</ele><time>2026-04-04T18:49:50Z</time></trkpt><trkpt lat="51.04896192067744" lon="2.3843643451008596"><ele>7.0</ele><time>2026-04-04T18:49:52Z</time></trkpt><trkpt lat="51.048940190618886" lon="2.3842342990583725"><ele>7.0</ele><time>2026-04-04T18:49:54Z</time></trkpt><trkpt lat="51.04891802059681" lon="2.384101619980421"><ele>7.0</ele><time>2026-04-04T18:49:56Z</time></trkpt><trkpt lat="51.04897292202296" lon="2.3839619219197075"><ele>7.000000000000001</ele><time>2026-04-04T18:49:58Z</time></trkpt><trkpt lat="51.048948583515156" lon="2.3838635036739073"><ele>7.0</ele><time>2026-04-04T18:50:01Z</time></trkpt><trkpt lat="51.048913517544456" lon="2.3837042908861066"><ele>6.833333333333334</ele><time>2026-04-04T18:50:03Z</time></trkpt><trkpt lat="51.04890116863322" lon="2.3835674420953437"><ele>6.666666666666667</ele><time>2026-04-04T18:50:05Z</time></trkpt><trkpt lat="51.048874615826" lon="2.3834144932145014"><ele>6.5</ele><time>2026-04-04T18:50:07Z</time></trkpt><trkpt lat="51.04885741997162" lon="2.3832722660353403"><ele>6.333333333333334</ele><time>2026-04-04T18:50:09Z</time></trkpt><trkpt lat="51.048826590148344" lon="2.3831589248273914"><ele>6.166666666666667</ele><time>2026-04-04T18:50:11Z</time></trkpt><trkpt lat="51.048802229623895" lon="2.3830496643163475"><ele>6.0</ele><time>2026-04-04T18:50:12.999Z</time></trkpt><trkpt lat="51.04878244251633" lon="2.3829308340017543"><ele>6.0</ele><time>2026-04-04T18:50:14.999Z</time></trkpt><trkpt lat="51.0487549790296" lon="2.3828091832420695"><ele>6.0</ele><time>2026-04-04T18:50:16.999Z</time></trkpt><trkpt lat="51.04873564108171" lon="2.3826855923329013"><ele>6.0</ele><time>2026-04-04T18:50:18.999Z</time></trkpt><trkpt lat="51.04872565134585" lon="2.3825676840140786"><ele>6.0</ele><time>2026-04-04T18:50:20.999Z</time></trkpt><trkpt lat="51.04870940645223" lon="2.3824633875756196"><ele>6.0</ele><time>2026-04-04T18:50:22.999Z</time></trkpt><trkpt lat="51.04870300132855" lon="2.382329690354575"><ele>6.0</ele><time>2026-04-04T18:50:25.999Z</time></trkpt><trkpt lat="51.04867079064082" lon="2.382198643456276"><ele>5.833333333333333</ele><time>2026-04-04T18:50:28.999Z</time></trkpt><trkpt lat="51.048625728216635" lon="2.382085731211885"><ele>5.666666666666667</ele><time>2026-04-04T18:50:31.999Z</time></trkpt><trkpt lat="51.04860535860228" lon="2.3819821255261036"><ele>5.5</ele><time>2026-04-04T18:50:34.999Z</time></trkpt><trkpt lat="51.04857679026212" lon="2.3818586312454357"><ele>5.333333333333334</ele><time>2026-04-04T18:50:38.999Z</time></trkpt><trkpt lat="51.04855852083997" lon="2.3817186170637816"><ele>5.166666666666667</ele><time>2026-04-04T18:50:42.999Z</time></trkpt><trkpt lat="51.04853476752139" lon="2.3816243644114845"><ele>5.0</ele><time>2026-04-04T18:50:44.999Z</time></trkpt><trkpt lat="51.0485098606465" lon="2.381502726023102"><ele>5.0</ele><time>2026-04-04T18:50:46.999Z</time></trkpt><trkpt lat="51.04850312587058" lon="2.381350443345955"><ele>5.0</ele><time>2026-04-04T18:50:48.999Z</time></trkpt><trkpt lat="51.0484839540593" lon="2.381219814819624"><ele>5.0</ele><time>2026-04-04T18:50:50.999Z</time></trkpt><trkpt lat="51.04847320709641" lon="2.381104513582823"><ele>5.0</ele><time>2026-04-04T18:50:52.999Z</time></trkpt><trkpt lat="51.04847745522935" lon="2.3809973407038387"><ele>5.0</ele><time>2026-04-04T18:50:54.999Z</time></trkpt><trkpt lat="51.0484715713952" lon="2.3808573365772054"><ele>5.0</ele><time>2026-04-04T18:50:57.999Z</time></trkpt><trkpt lat="51.048452036163766" lon="2.380739214055863"><ele>5.142857142857142</ele><time>2026-04-04T18:51:00.999Z</time></trkpt><trkpt lat="51.048437163481104" lon="2.3806075021737954"><ele>5.285714285714286</ele><time>2026-04-04T18:51:03.999Z</time></trkpt><trkpt lat="51.048414811575796" lon="2.38050711755022"><ele>5.428571428571429</ele><time>2026-04-04T18:51:05.999Z</time></trkpt><trkpt lat="51.04836936487947" lon="2.3804306048192183"><ele>5.571428571428571</ele><time>2026-04-04T18:51:07.999Z</time></trkpt><trkpt lat="51.04835774339214" lon="2.3802971192649904"><ele>5.714285714285714</ele><time>2026-04-04T18:51:10.999Z</time></trkpt><trkpt lat="51.048344480383285" lon="2.380197431929158"><ele>5.857142857142857</ele><time>2026-04-04T18:51:13Z</time></trkpt><trkpt lat="51.04833539299725" lon="2.380093137078745"><ele>6.0</ele><time>2026-04-04T18:51:15Z</time></trkpt><trkpt lat="51.048323504680894" lon="2.3799898854637824"><ele>6.166666666666667</ele><time>2026-04-04T18:51:17Z</time></trkpt><trkpt lat="51.04830606570014" lon="2.3798897619237307"><ele>6.333333333333334</ele><time>2026-04-04T18:51:19Z</time></trkpt><trkpt lat="51.04829254682258" lon="2.379786896759868"><ele>6.5</ele><time>2026-04-04T18:51:21Z</time></trkpt><trkpt lat="51.048276213130734" lon="2.37964228754332"><ele>6.666666666666667</ele><time>2026-04-04T18:51:24Z</time></trkpt><trkpt lat="51.048251523468856" lon="2.379499515628853"><ele>6.833333333333334</ele><time>2026-04-04T18:51:27Z</time></trkpt><trkpt lat="51.04823295725812" lon="2.379395342447887"><ele>7.0</ele><time>2026-04-04T18:51:29Z</time></trkpt><trkpt lat="51.04820992781587" lon="2.3792828154716346"><ele>6.333333333333334</ele><time>2026-04-04T18:51:31Z</time></trkpt><trkpt lat="51.04818744755652" lon="2.37916460982296"><ele>5.666666666666667</ele><time>2026-04-04T18:51:33Z</time></trkpt><trkpt lat="51.04816632374523" lon="2.3790431635673843"><ele>5.0</ele><time>2026-04-04T18:51:35Z</time></trkpt><trkpt lat="51.048152348385244" lon="2.3789313017057343"><ele>4.333333333333334</ele><time>2026-04-04T18:51:37Z</time></trkpt><trkpt lat="51.0481316349899" lon="2.378808060088249"><ele>3.666666666666667</ele><time>2026-04-04T18:51:39Z</time></trkpt><trkpt lat="51.048108506122176" lon="2.3787013228438814"><ele>3.0</ele><time>2026-04-04T18:51:41Z</time></trkpt><trkpt lat="51.04809053838714" lon="2.3785933636305474"><ele>3.0</ele><time>2026-04-04T18:51:43Z</time></trkpt><trkpt lat="51.04807358350361" lon="2.378483599718997"><ele>3.0</ele><time>2026-04-04T18:51:45Z</time></trkpt><trkpt lat="51.048054998216784" lon="2.378332883929427"><ele>3.0</ele><time>2026-04-04T18:51:48Z</time></trkpt><trkpt lat="51.048046028887384" lon="2.3782037160247116"><ele>3.0</ele><time>2026-04-04T18:51:50Z</time></trkpt><trkpt lat="51.0480516501955" lon="2.378064065742486"><ele>3.0</ele><time>2026-04-04T18:51:52Z</time></trkpt><trkpt lat="51.04804078553028" lon="2.3779636198486975"><ele>3.0</ele><time>2026-04-04T18:51:54Z</time></trkpt><trkpt lat="51.047964206937124" lon="2.377986606042359"><ele>2.9999999999999996</ele><time>2026-04-04T18:51:58Z</time></trkpt><trkpt lat="51.04793331551292" lon="2.3780776057645236"><ele>3.0</ele><time>2026-04-04T18:52:01Z</time></trkpt><trkpt lat="51.04789676403964" lon="2.378167341580402"><ele>3.0</ele><time>2026-04-04T18:52:04Z</time></trkpt><trkpt lat="51.0478630367279" lon="2.378290425804208"><ele>3.0</ele><time>2026-04-04T18:52:06Z</time></trkpt><trkpt lat="51.04783018370794" lon="2.3783889708189956"><ele>3.0</ele><time>2026-04-04T18:52:08Z</time></trkpt><trkpt lat="51.04777607618044" lon="2.378464176817947"><ele>2.9999999999999996</ele><time>2026-04-04T18:52:10Z</time></trkpt><trkpt lat="51.04772441140136" lon="2.378540261492466"><ele>3.0</ele><time>2026-04-04T18:52:12Z</time></trkpt><trkpt lat="51.04769136154675" lon="2.378661548147697"><ele>2.9999999999999996</ele><time>2026-04-04T18:52:14.999Z</time></trkpt><trkpt lat="51.047654705428485" lon="2.378761242403354"><ele>3.0</ele><time>2026-04-04T18:52:16.999Z</time></trkpt><trkpt lat="51.04761327079667" lon="2.378860923771877"><ele>3.0</ele><time>2026-04-04T18:52:18.999Z</time></trkpt><trkpt lat="51.04757164211983" lon="2.378957625581218"><ele>3.0</ele><time>2026-04-04T18:52:20.999Z</time></trkpt><trkpt lat="51.04752597611185" lon="2.3790479545414285"><ele>3.0</ele><time>2026-04-04T18:52:22.999Z</time></trkpt><trkpt lat="51.04748635249385" lon="2.3791464699280516"><ele>2.9999999999999996</ele><time>2026-04-04T18:52:24.999Z</time></trkpt><trkpt lat="51.04745215172818" lon="2.3792458986904776"><ele>3.0</ele><time>2026-04-04T18:52:26.999Z</time></trkpt><trkpt lat="51.04742123321446" lon="2.3793477604229465"><ele>3.3333333333333335</ele><time>2026-04-04T18:52:28.999Z</time></trkpt><trkpt lat="51.04739957131765" lon="2.379467696099644"><ele>3.666666666666667</ele><time>2026-04-04T18:52:30.999Z</time></trkpt><trkpt lat="51.0473708309951" lon="2.379587043791951"><ele>4.0</ele><time>2026-04-04T18:52:32.999Z</time></trkpt><trkpt lat="51.047349999703094" lon="2.3797173293262674"><ele>4.333333333333334</ele><time>2026-04-04T18:52:34.999Z</time></trkpt><trkpt lat="51.047352304778606" lon="2.3798436490811823"><ele>4.666666666666667</ele><time>2026-04-04T18:52:36.999Z</time></trkpt><trkpt lat="51.04729527124289" lon="2.3798950520036053"><ele>5.0</ele><time>2026-04-04T18:52:39.999Z</time></trkpt><trkpt lat="51.0472790284716" lon="2.3797545990004587"><ele>5.0</ele><time>2026-04-04T18:52:42.999Z</time></trkpt><trkpt lat="51.04729270827983" lon="2.3796049568653617"><ele>5.0</ele><time>2026-04-04T18:52:45.999Z</time></trkpt><trkpt lat="51.04730400857196" lon="2.379490573349834"><ele>5.0</ele><time>2026-04-04T18:52:47.999Z</time></trkpt><trkpt lat="51.04734330199198" lon="2.3793737482580744"><ele>5.0</ele><time>2026-04-04T18:52:49.999Z</time></trkpt><trkpt lat="51.047364697478656" lon="2.3792445943237683"><ele>5.0</ele><time>2026-04-04T18:52:51.999Z</time></trkpt><trkpt lat="51.04739440992145" lon="2.3791192686430063"><ele>5.0</ele><time>2026-04-04T18:52:53.999Z</time></trkpt><trkpt lat="51.04738574039953" lon="2.378971579378548"><ele>5.0</ele><time>2026-04-04T18:52:55.999Z</time></trkpt><trkpt lat="51.047361241282736" lon="2.3788447444004763"><ele>5.0</ele><time>2026-04-04T18:52:57.999Z</time></trkpt><trkpt lat="51.047342135112096" lon="2.378727586505991"><ele>5.0</ele><time>2026-04-04T18:52:59.999Z</time></trkpt><trkpt lat="51.047335868185094" lon="2.3786019487779653"><ele>5.0</ele><time>2026-04-04T18:53:01.999Z</time></trkpt><trkpt lat="51.047344326799085" lon="2.3785023341244513"><ele>5.0</ele><time>2026-04-04T18:53:03.999Z</time></trkpt><trkpt lat="51.04734901633557" lon="2.3783975952829968"><ele>5.0</ele><time>2026-04-04T18:53:05.999Z</time></trkpt><trkpt lat="51.047344201651484" lon="2.3782766673819498"><ele>5.0</ele><time>2026-04-04T18:53:07.999Z</time></trkpt><trkpt lat="51.04733972703478" lon="2.3781551856850953"><ele>4.8</ele><time>2026-04-04T18:53:09.999Z</time></trkpt><trkpt lat="51.04734168010229" lon="2.3780131882351347"><ele>4.6</ele><time>2026-04-04T18:53:11.999Z</time></trkpt><trkpt lat="51.047332886757715" lon="2.377872530510613"><ele>4.4</ele><time>2026-04-04T18:53:13.999Z</time></trkpt><trkpt lat="51.04732660286297" lon="2.377723639738473"><ele>4.2</ele><time>2026-04-04T18:53:15.999Z</time></trkpt><trkpt lat="51.04731777728631" lon="2.3775617611631827"><ele>4.0</ele><time>2026-04-04T18:53:18Z</time></trkpt><trkpt lat="51.04731859228384" lon="2.3774246237453043"><ele>3.9999999999999996</ele><time>2026-04-04T18:53:20Z</time></trkpt><trkpt lat="51.047301814233066" lon="2.377309505022999"><ele>4.0</ele><time>2026-04-04T18:53:22Z</time></trkpt><trkpt lat="51.04730262580718" lon="2.377198171762282"><ele>4.0</ele><time>2026-04-04T18:53:24Z</time></trkpt><trkpt lat="51.047293334024936" lon="2.3770534808821457"><ele>4.0</ele><time>2026-04-04T18:53:27Z</time></trkpt><trkpt lat="51.047290525252734" lon="2.3769239934716437"><ele>3.9999999999999996</ele><time>2026-04-04T18:53:30Z</time></trkpt><trkpt lat="51.04726098749929" lon="2.3768194373744764"><ele>4.0</ele><time>2026-04-04T18:53:33Z</time></trkpt><trkpt lat="51.047174451920704" lon="2.3767795482197926"><ele>3.9999999999999996</ele><time>2026-04-04T18:53:36Z</time></trkpt><trkpt lat="51.04710660810494" lon="2.376773321624209"><ele>4.0</ele><time>2026-04-04T18:53:38Z</time></trkpt><trkpt lat="51.047024989432856" lon="2.376763480366861"><ele>4.0</ele><time>2026-04-04T18:53:40Z</time></trkpt><trkpt lat="51.04694306390571" lon="2.376777971973946"><ele>4.0</ele><time>2026-04-04T18:53:42Z</time></trkpt><trkpt lat="51.04687388079542" lon="2.376818333110638"><ele>3.9999999999999996</ele><time>2026-04-04T18:53:44Z</time></trkpt><trkpt lat="51.04679726689235" lon="2.3768204558587875"><ele>4.0</ele><time>2026-04-04T18:53:46Z</time></trkpt><trkpt lat="51.04671994992502" lon="2.3768419959122618"><ele>3.9999999999999996</ele><time>2026-04-04T18:53:48Z</time></trkpt><trkpt lat="51.04663264764682" lon="2.376838842331391"><ele>4.0</ele><time>2026-04-04T18:53:50Z</time></trkpt><trkpt lat="51.046546069166475" lon="2.3768378685976406"><ele>4.0</ele><time>2026-04-04T18:53:52Z</time></trkpt><trkpt lat="51.046460149909095" lon="2.376837511701359"><ele>4.0</ele><time>2026-04-04T18:53:54Z</time></trkpt><trkpt lat="51.046388369974814" lon="2.376843832841884"><ele>3.9999999999999996</ele><time>2026-04-04T18:53:56Z</time></trkpt><trkpt lat="51.046316534425955" lon="2.376833299364347"><ele>4.0</ele><time>2026-04-04T18:53:59Z</time></trkpt><trkpt lat="51.046279232293976" lon="2.3767186790708617"><ele>3.9999999999999996</ele><time>2026-04-04T18:54:02Z</time></trkpt><trkpt lat="51.046271875678976" lon="2.376575400342174"><ele>4.0</ele><time>2026-04-04T18:54:04Z</time></trkpt><trkpt lat="51.046240599606506" lon="2.3764805460980187"><ele>4.0</ele><time>2026-04-04T18:54:06Z</time></trkpt><trkpt lat="51.04621416156216" lon="2.3763497223399868"><ele>4.0</ele><time>2026-04-04T18:54:08Z</time></trkpt><trkpt lat="51.04619036188527" lon="2.3762343496850065"><ele>3.9999999999999996</ele><time>2026-04-04T18:54:10Z</time></trkpt><trkpt lat="51.04616871329726" lon="2.376122836851823"><ele>4.0</ele><time>2026-04-04T18:54:12Z</time></trkpt><trkpt lat="51.04614953482678" lon="2.3760245266612636"><ele>3.9999999999999996</ele><time>2026-04-04T18:54:14Z</time></trkpt><trkpt lat="51.046113266452" lon="2.375893926702559"><ele>4.0</ele><time>2026-04-04T18:54:16.999Z</time></trkpt><trkpt lat="51.04608232711527" lon="2.3757585250570425"><ele>4.0</ele><time>2026-04-04T18:54:19.999Z</time></trkpt><trkpt lat="51.04605779910484" lon="2.375655410485956"><ele>4.0</ele><time>2026-04-04T18:54:21.999Z</time></trkpt><trkpt lat="51.046032823237006" lon="2.3755460146384113"><ele>3.9999999999999996</ele><time>2026-04-04T18:54:23.999Z</time></trkpt><trkpt lat="51.04600339403417" lon="2.37541817814991"><ele>4.0</ele><time>2026-04-04T18:54:26.999Z</time></trkpt><trkpt lat="51.04597435970544" lon="2.3752843655430147"><ele>3.833333333333333</ele><time>2026-04-04T18:54:29.999Z</time></trkpt><trkpt lat="51.04594117832663" lon="2.3751816030848905"><ele>3.6666666666666665</ele><time>2026-04-04T18:54:31.999Z</time></trkpt><trkpt lat="51.04591230571191" lon="2.3750664974855002"><ele>3.5</ele><time>2026-04-04T18:54:33.999Z</time></trkpt><trkpt lat="51.04587959118056" lon="2.3749332289618708"><ele>3.333333333333333</ele><time>2026-04-04T18:54:35.999Z</time></trkpt><trkpt lat="51.04585572269842" lon="2.374790224234564"><ele>3.1666666666666665</ele><time>2026-04-04T18:54:37.999Z</time></trkpt><trkpt lat="51.0458356449948" lon="2.3746708708938433"><ele>3.0</ele><time>2026-04-04T18:54:39.999Z</time></trkpt><trkpt lat="51.045831108383766" lon="2.374556323999476"><ele>2.8333333333333335</ele><time>2026-04-04T18:54:41.999Z</time></trkpt><trkpt lat="51.0458177268987" lon="2.374450623494732"><ele>2.6666666666666665</ele><time>2026-04-04T18:54:43.999Z</time></trkpt><trkpt lat="51.04581768222714" lon="2.3743206234602505"><ele>2.5</ele><time>2026-04-04T18:54:45.999Z</time></trkpt><trkpt lat="51.04578787656565" lon="2.374189125108221"><ele>2.333333333333333</ele><time>2026-04-04T18:54:47.999Z</time></trkpt><trkpt lat="51.045786284398524" lon="2.3740282923935583"><ele>2.1666666666666665</ele><time>2026-04-04T18:54:49.999Z</time></trkpt><trkpt lat="51.0457706791443" lon="2.3738908223095083"><ele>2.0</ele><time>2026-04-04T18:54:51.999Z</time></trkpt><trkpt lat="51.0457492259055" lon="2.373767792267648"><ele>2.0</ele><time>2026-04-04T18:54:53.999Z</time></trkpt><trkpt lat="51.045741614869925" lon="2.3736496174529473"><ele>1.9999999999999998</ele><time>2026-04-04T18:54:55.999Z</time></trkpt><trkpt lat="51.04570858914391" lon="2.3735574444386582"><ele>2.0</ele><time>2026-04-04T18:54:57.999Z</time></trkpt><trkpt lat="51.04563565711354" lon="2.3734867703088263"><ele>2.0</ele><time>2026-04-04T18:55:00.999Z</time></trkpt><trkpt lat="51.04558715683147" lon="2.3734171179621946"><ele>1.9999999999999998</ele><time>2026-04-04T18:55:02.999Z</time></trkpt><trkpt lat="51.04552248591376" lon="2.3733597432407394"><ele>2.0</ele><time>2026-04-04T18:55:04.999Z</time></trkpt><trkpt lat="51.04546730020456" lon="2.3732990972495878"><ele>2.0</ele><time>2026-04-04T18:55:06.999Z</time></trkpt><trkpt lat="51.04540978417565" lon="2.373244286919839"><ele>1.9999999999999998</ele><time>2026-04-04T18:55:08.999Z</time></trkpt><trkpt lat="51.045338375271946" lon="2.373154491305155"><ele>2.0</ele><time>2026-04-04T18:55:11.999Z</time></trkpt><trkpt lat="51.04527953607542" lon="2.3730733818603498"><ele>2.0</ele><time>2026-04-04T18:55:13.999Z</time></trkpt><trkpt lat="51.04522956764588" lon="2.3729954525787567"><ele>2.0</ele><time>2026-04-04T18:55:15.999Z</time></trkpt><trkpt lat="51.04516021022619" lon="2.3729729677810636"><ele>1.9999999999999998</ele><time>2026-04-04T18:55:17.999Z</time></trkpt><trkpt lat="51.045077234899836" lon="2.3730211162374246"><ele>2.0</ele><time>2026-04-04T18:55:20.999Z</time></trkpt><trkpt lat="51.04500366774441" lon="2.373109559270424"><ele>1.4999999999999998</ele><time>2026-04-04T18:55:24Z</time></trkpt><trkpt lat="51.04493550434695" lon="2.373188417866072"><ele>1.0</ele><time>2026-04-04T18:55:27Z</time></trkpt><trkpt lat="51.04487818969792" lon="2.373263848498141"><ele>0.5</ele><time>2026-04-04T18:55:30Z</time></trkpt><trkpt lat="51.04482758784614" lon="2.373334276453733"><ele>0.0</ele><time>2026-04-04T18:55:33Z</time></trkpt><trkpt lat="51.044776070553546" lon="2.373414831139586"><ele>-0.49999999999999994</ele><time>2026-04-04T18:55:36Z</time></trkpt><trkpt lat="51.044718427977344" lon="2.3734979285616378"><ele>-1.0</ele><time>2026-04-04T18:55:39Z</time></trkpt><trkpt lat="51.04465529490725" lon="2.3735811633419863"><ele>-0.9999999999999999</ele><time>2026-04-04T18:55:42Z</time></trkpt><trkpt lat="51.04460408714751" lon="2.3736398756160373"><ele>-1.0</ele><time>2026-04-04T18:55:44Z</time></trkpt><trkpt lat="51.04454435752345" lon="2.3737208594038792"><ele>-1.0</ele><time>2026-04-04T18:55:46Z</time></trkpt><trkpt lat="51.0444868152265" lon="2.373769430015752"><ele>-1.0</ele><time>2026-04-04T18:55:48Z</time></trkpt><trkpt lat="51.04442393351907" lon="2.3738436005076475"><ele>-0.9999999999999999</ele><time>2026-04-04T18:55:51Z</time></trkpt><trkpt lat="51.04436157812683" lon="2.373940109479218"><ele>-1.0</ele><time>2026-04-04T18:55:54Z</time></trkpt><trkpt lat="51.04429911985476" lon="2.3740546892838315"><ele>-0.9999999999999999</ele><time>2026-04-04T18:55:57Z</time></trkpt><trkpt lat="51.0442505321276" lon="2.374127833630994"><ele>-1.0</ele><time>2026-04-04T18:55:59Z</time></trkpt><trkpt lat="51.044178399509626" lon="2.3742449872210494"><ele>-1.0</ele><time>2026-04-04T18:56:02Z</time></trkpt><trkpt lat="51.0441162163883" lon="2.374299576489057"><ele>-1.0</ele><time>2026-04-04T18:56:04Z</time></trkpt><trkpt lat="51.04405772562667" lon="2.3743584100380324"><ele>-0.9999999999999999</ele><time>2026-04-04T18:56:06Z</time></trkpt><trkpt lat="51.043986672954524" lon="2.3744266200010955"><ele>-1.0</ele><time>2026-04-04T18:56:09Z</time></trkpt><trkpt lat="51.04394356255818" lon="2.374513865327538"><ele>-1.0</ele><time>2026-04-04T18:56:11Z</time></trkpt><trkpt lat="51.04388476499054" lon="2.374578489003358"><ele>-0.9999999999999999</ele><time>2026-04-04T18:56:13Z</time></trkpt><trkpt lat="51.043826544559714" lon="2.374629579713052"><ele>-1.0</ele><time>2026-04-04T18:56:15Z</time></trkpt><trkpt lat="51.04377345976139" lon="2.374696911421511"><ele>-1.0</ele><time>2026-04-04T18:56:17Z</time></trkpt><trkpt lat="51.04370929486087" lon="2.37477963469826"><ele>-0.9999999999999999</ele><time>2026-04-04T18:56:18.999Z</time></trkpt><trkpt lat="51.04365911569895" lon="2.3748613545272264"><ele>-1.0</ele><time>2026-04-04T18:56:20.999Z</time></trkpt><trkpt lat="51.04359798402355" lon="2.374944400033533"><ele>-1.0</ele><time>2026-04-04T18:56:22.999Z</time></trkpt><trkpt lat="51.04354125362083" lon="2.3750133794362815"><ele>-0.8333333333333333</ele><time>2026-04-04T18:56:24.999Z</time></trkpt><trkpt lat="51.04348187475304" lon="2.3750863064953305"><ele>-0.6666666666666666</ele><time>2026-04-04T18:56:26.999Z</time></trkpt><trkpt lat="51.0434101624666" lon="2.3751712062051276"><ele>-0.5</ele><time>2026-04-04T18:56:28.999Z</time></trkpt><trkpt lat="51.043355210159596" lon="2.37524495365549"><ele>-0.3333333333333333</ele><time>2026-04-04T18:56:30.999Z</time></trkpt><trkpt lat="51.043289252805785" lon="2.3753169080708894"><ele>-0.16666666666666666</ele><time>2026-04-04T18:56:32.999Z</time></trkpt><trkpt lat="51.04320547172879" lon="2.375416816779062"><ele>0.0</ele><time>2026-04-04T18:56:34.999Z</time></trkpt><trkpt lat="51.04314281911993" lon="2.3754960941110173"><ele>-0.3333333333333333</ele><time>2026-04-04T18:56:36.999Z</time></trkpt><trkpt lat="51.04319086012753" lon="2.3756220649316506"><ele>-0.6666666666666666</ele><time>2026-04-04T18:56:37.999Z</time></trkpt><trkpt lat="51.04312523485752" lon="2.375702258707346"><ele>-1.0</ele><time>2026-04-04T18:56:40.999Z</time></trkpt><trkpt lat="51.043074553238526" lon="2.3757702663790377"><ele>-1.3333333333333333</ele><time>2026-04-04T18:56:42.999Z</time></trkpt><trkpt lat="51.043024505770774" lon="2.3758363686206443"><ele>-1.6666666666666665</ele><time>2026-04-04T18:56:44.999Z</time></trkpt><trkpt lat="51.0429720031477" lon="2.375904954882012"><ele>-2.0</ele><time>2026-04-04T18:56:46.999Z</time></trkpt><trkpt lat="51.04290112545344" lon="2.375998335191494"><ele>-1.9999999999999998</ele><time>2026-04-04T18:56:49.999Z</time></trkpt><trkpt lat="51.042843545594835" lon="2.376074944540644"><ele>-2.0</ele><time>2026-04-04T18:56:51.999Z</time></trkpt><trkpt lat="51.042768501856656" lon="2.376174446188227"><ele>-2.0</ele><time>2026-04-04T18:56:54.999Z</time></trkpt><trkpt lat="51.042707288723385" lon="2.376255609814281"><ele>-2.0</ele><time>2026-04-04T18:56:57.999Z</time></trkpt><trkpt lat="51.04259419322672" lon="2.376200037509116"><ele>-1.9999999999999998</ele><time>2026-04-04T18:56:59.999Z</time></trkpt><trkpt lat="51.042554599890785" lon="2.376283756406925"><ele>-2.0</ele><time>2026-04-04T18:57:02.999Z</time></trkpt><trkpt lat="51.0424919346522" lon="2.376307275426574"><ele>-1.1666666666666665</ele><time>2026-04-04T18:57:18.999Z</time></trkpt><trkpt lat="51.04243025125159" lon="2.3763510124721203"><ele>-0.33333333333333326</ele><time>2026-04-04T18:57:21.999Z</time></trkpt><trkpt lat="51.042385413846105" lon="2.3764304259223863"><ele>0.5</ele><time>2026-04-04T18:57:24.999Z</time></trkpt><trkpt lat="51.042338893784695" lon="2.376529641678169"><ele>1.3333333333333335</ele><time>2026-04-04T18:57:28.998Z</time></trkpt><trkpt lat="51.04229415516644" lon="2.3766350102420506"><ele>2.1666666666666665</ele><time>2026-04-04T18:57:32Z</time></trkpt><trkpt lat="51.04223368514594" lon="2.376738277038395"><ele>3.0</ele><time>2026-04-04T18:57:35Z</time></trkpt><trkpt lat="51.04217812226463" lon="2.3768439709564686"><ele>2.9999999999999996</ele><time>2026-04-04T18:57:38Z</time></trkpt><trkpt lat="51.0421105576852" lon="2.376922593697125"><ele>3.0</ele><time>2026-04-04T18:57:41Z</time></trkpt><trkpt lat="51.04206148924408" lon="2.3769930005838265"><ele>3.0</ele><time>2026-04-04T18:57:44Z</time></trkpt><trkpt lat="51.0420066132422" lon="2.377083874303556"><ele>3.0</ele><time>2026-04-04T18:57:49Z</time></trkpt><trkpt lat="51.04194935553457" lon="2.3771408988180176"><ele>3.0</ele><time>2026-04-04T18:57:52Z</time></trkpt><trkpt lat="51.041885381637954" lon="2.377195211282079"><ele>2.9999999999999996</ele><time>2026-04-04T18:57:55Z</time></trkpt><trkpt lat="51.041816401091765" lon="2.3772072355996725"><ele>3.0</ele><time>2026-04-04T18:57:59Z</time></trkpt><trkpt lat="51.04176992935252" lon="2.37727648515162"><ele>3.1666666666666665</ele><time>2026-04-04T18:58:02Z</time></trkpt><trkpt lat="51.041800319783675" lon="2.3773918106719516"><ele>3.333333333333333</ele><time>2026-04-04T18:58:05Z</time></trkpt><trkpt lat="51.041834142734686" lon="2.377499479060848"><ele>3.5</ele><time>2026-04-04T18:58:08Z</time></trkpt><trkpt lat="51.04185821692436" lon="2.3776169506961415"><ele>3.6666666666666665</ele><time>2026-04-04T18:58:11Z</time></trkpt><trkpt lat="51.04189867622941" lon="2.377739566374805"><ele>3.833333333333333</ele><time>2026-04-04T18:58:15Z</time></trkpt><trkpt lat="51.04195004779685" lon="2.377803315465552"><ele>4.0</ele><time>2026-04-04T18:58:17Z</time></trkpt><trkpt lat="51.042005549927715" lon="2.3778985892955755"><ele>3.9999999999999996</ele><time>2026-04-04T18:58:20Z</time></trkpt><trkpt lat="51.04204349791704" lon="2.3780104980436407"><ele>4.0</ele><time>2026-04-04T18:58:22.999Z</time></trkpt><trkpt lat="51.04206753906411" lon="2.378119717105128"><ele>4.0</ele><time>2026-04-04T18:58:26.999Z</time></trkpt><trkpt lat="51.0421397558382" lon="2.378199626914499"><ele>4.0</ele><time>2026-04-04T18:58:29.999Z</time></trkpt><trkpt lat="51.04218721787129" lon="2.3782998822023287"><ele>3.9999999999999996</ele><time>2026-04-04T18:58:32.999Z</time></trkpt><trkpt lat="51.04224959746156" lon="2.3784057733330615"><ele>4.0</ele><time>2026-04-04T18:58:35.999Z</time></trkpt><trkpt lat="51.04225237914884" lon="2.3785298140243754"><ele>4.142857142857142</ele><time>2026-04-04T18:58:38.999Z</time></trkpt><trkpt lat="51.042188476592514" lon="2.3785692294451755"><ele>4.285714285714286</ele><time>2026-04-04T18:58:41.999Z</time></trkpt><trkpt lat="51.04212035997196" lon="2.3785640293235617"><ele>4.428571428571429</ele><time>2026-04-04T18:58:48.999Z</time></trkpt><trkpt lat="51.04209103323271" lon="2.378660891366366"><ele>4.571428571428571</ele><time>2026-04-04T18:59:33.998Z</time></trkpt><trkpt lat="51.04211448219843" lon="2.378756824628114"><ele>4.714285714285714</ele><time>2026-04-04T18:59:38Z</time></trkpt><trkpt lat="51.0421453098611" lon="2.3788462276984514"><ele>4.857142857142857</ele><time>2026-04-04T19:00:41.999Z</time></trkpt><trkpt lat="51.04214239687297" lon="2.3790281459756257"><ele>5.0</ele><time>2026-04-04T19:00:43.999Z</time></trkpt><trkpt lat="51.04214147136846" lon="2.3791938560552537"><ele>5.0</ele><time>2026-04-04T19:00:54.999Z</time></trkpt><trkpt lat="51.04208279074634" lon="2.3790286178039"><ele>5.0</ele><time>2026-04-04T19:01:06.999Z</time></trkpt><trkpt lat="51.04211335749144" lon="2.378877509166072"><ele>5.0</ele><time>2026-04-04T19:01:11.999Z</time></trkpt><trkpt lat="51.041988911618674" lon="2.3786709859670436"><ele>5.0</ele><time>2026-04-04T19:02:08.012Z</time></trkpt><trkpt lat="51.041873088031934" lon="2.37895473888468"><ele>5.0</ele><time>2026-04-04T19:02:10.61Z</time></trkpt><trkpt lat="51.04185247699548" lon="2.3788513215352323"><ele>5.0</ele><time>2026-04-04T19:02:54Z</time></trkpt><trkpt lat="51.04179691455183" lon="2.3787692728589005"><ele>5.0</ele><time>2026-04-04T19:02:59Z</time></trkpt><trkpt lat="51.041605631319946" lon="2.3788188996585853"><ele>5.0</ele><time>2026-04-04T19:03:04Z</time></trkpt><trkpt lat="51.04170005288974" lon="2.378772965434894"><ele>5.0</ele><time>2026-04-04T19:03:13.999Z</time></trkpt><trkpt lat="51.04168110764871" lon="2.3785928069939635"><ele>5.0</ele><time>2026-04-04T19:03:22.999Z</time></trkpt><trkpt lat="51.0416866410065" lon="2.378467178717039"><ele>5.0</ele><time>2026-04-04T19:03:23.999Z</time></trkpt><trkpt lat="51.041837579522074" lon="2.3788248377412864"><ele>5.0</ele><time>2026-04-04T19:03:45.999Z</time></trkpt></trkseg></trk></gpx>